NOAA Web Site Link Tides and Currents Home Page Transparent placeholder image

PORTS® Data Listing: 8632200 Kiptopeke, VA

CO-OPS RAW PORTS DATA

************************      PRELIMINARY DATA      ************************** 

     THIS RAW DATA HAS NOT BEEN SUBJECT TO THE NATIONAL OCEAN SERVICE'S        
     QUALITY CONTROL OR QUALITY ASSURANCE PROCEDURES AND DOES NOT MEET         
     THE CRITERIA AND STANDARDS OF OFFICIAL NATIONAL OCEAN SERVICE             
     DATA.  IT IS RELEASED FOR LIMITED PUBLIC USE AS PRELIMINARY DATA TO       
     BE USED ONLY WITH APPROPRIATE CAUTION.                                    

************************      PRELIMINARY DATA      ************************** 


       CD   -   Calendar date
       T    -   Time
       TZ   -   Timezone
       PW   -   Predicted water level (feet above MLLW)
       OW   -   Observed water level (feet above MLLW)
       WS   -   Wind speed (knots)
       WD   -   Wind direction (degrees true)
       WG   -   Wind gust (knots)
       AT   -   Air temperature (degrees farenheit)
       WT   -   Water temperature (degrees farenheit)
       AP   -   Air pressure (millibars)
       SA   -   Salinty (PSU - Practical Salinity Units)
       SG   -   Specific gravity
       RH   -   Relative humidity
       AG   -   Air gap (feet)
       VI   -   Visibility (nautical miles)

       ** NOTE **
       A variable that has its data fields filled with "9"s, indicates that
       data was not collected for that sample period.
       **********


STATION NAME: Kiptopeke (8632200)
****************************************************************************************************
    CD       T    TZ    PW     OW    WS   WD   WG    AT    WT    AP    SA    SG     RH    AG   VI
****************************************************************************************************
2019/05/24 08:00 EDT    0.36   0.47    6  274    7 -99.9  70.5 -999.9 -9.9 -9.999 -99.9 -99.99 -9.99
2019/05/24 08:06 EDT    0.37   0.49    5  279    7 -99.9  70.5 -999.9 -9.9 -9.999 -99.9 -99.99 -9.99
2019/05/24 08:12 EDT    0.38   0.51    6  274    7 -99.9  70.5 -999.9 -9.9 -9.999 -99.9 -99.99 -9.99
2019/05/24 08:18 EDT    0.39   0.53    6  283    7 -99.9  70.5 -999.9 -9.9 -9.999 -99.9 -99.99 -9.99
2019/05/24 08:24 EDT    0.41   0.54    5  294    7 -99.9  70.5 -999.9 -9.9 -9.999 -99.9 -99.99 -9.99
2019/05/24 08:30 EDT    0.43   0.54    4  297    6 -99.9  70.5 -999.9 -9.9 -9.999 -99.9 -99.99 -9.99
2019/05/24 08:36 EDT    0.45   0.57    3  308    5 -99.9  70.5 -999.9 -9.9 -9.999 -99.9 -99.99 -9.99
2019/05/24 08:42 EDT    0.47   0.62    3  307    4 -99.9  70.5 -999.9 -9.9 -9.999 -99.9 -99.99 -9.99
2019/05/24 08:48 EDT    0.49   0.66    4  297    5 -99.9  70.7 -999.9 -9.9 -9.999 -99.9 -99.99 -9.99
2019/05/24 08:54 EDT    0.52   0.66    4  308    5 -99.9  70.7 -999.9 -9.9 -9.999 -99.9 -99.99 -9.99
2019/05/24 09:00 EDT    0.55   0.69    3  313    4 -99.9  70.5 -999.9 -9.9 -9.999 -99.9 -99.99 -9.99
2019/05/24 09:06 EDT    0.58   0.73    3  323    4 -99.9  70.5 -999.9 -9.9 -9.999 -99.9 -99.99 -9.99
2019/05/24 09:12 EDT    0.62   0.78    5  339    7 -99.9  70.5 -999.9 -9.9 -9.999 -99.9 -99.99 -9.99
2019/05/24 09:18 EDT    0.65   0.81    8  317   10 -99.9  70.5 -999.9 -9.9 -9.999 -99.9 -99.99 -9.99
2019/05/24 09:24 EDT    0.69   0.87   10  311   11 -99.9  70.5 -999.9 -9.9 -9.999 -99.9 -99.99 -9.99
2019/05/24 09:30 EDT    0.73   0.94   10  310   11 -99.9  70.5 -999.9 -9.9 -9.999 -99.9 -99.99 -9.99
2019/05/24 09:36 EDT    0.77   0.98    9  311   11 -99.9  70.5 -999.9 -9.9 -9.999 -99.9 -99.99 -9.99
2019/05/24 09:42 EDT    0.82   1.04    9  324   11 -99.9  70.3 -999.9 -9.9 -9.999 -99.9 -99.99 -9.99
2019/05/24 09:48 EDT    0.86   1.07   10  336   12 -99.9  70.3 -999.9 -9.9 -9.999 -99.9 -99.99 -9.99
2019/05/24 09:54 EDT    0.91   1.12   14  340   19 -99.9  70.3 -999.9 -9.9 -9.999 -99.9 -99.99 -9.99
2019/05/24 10:00 EDT    0.96   1.15   12  348   17 -99.9  70.3 -999.9 -9.9 -9.999 -99.9 -99.99 -9.99
2019/05/24 10:06 EDT    1.01   1.20   14  344   19 -99.9  70.3 -999.9 -9.9 -9.999 -99.9 -99.99 -9.99
2019/05/24 10:12 EDT    1.06   1.26   15  355   19 -99.9  70.5 -999.9 -9.9 -9.999 -99.9 -99.99 -9.99
2019/05/24 10:18 EDT    1.11   1.32   17  348   21 -99.9  70.5 -999.9 -9.9 -9.999 -99.9 -99.99 -9.99
2019/05/24 10:24 EDT    1.17   1.38   14  359   18 -99.9  70.5 -999.9 -9.9 -9.999 -99.9 -99.99 -9.99
2019/05/24 10:30 EDT    1.22   1.45   14   10   20 -99.9  70.5 -999.9 -9.9 -9.999 -99.9 -99.99 -9.99
2019/05/24 10:36 EDT    1.27   1.56   13   13   16 -99.9  70.5 -999.9 -9.9 -9.999 -99.9 -99.99 -9.99
2019/05/24 10:42 EDT    1.33   1.60   14   22   21 -99.9  70.3 -999.9 -9.9 -9.999 -99.9 -99.99 -9.99
2019/05/24 10:48 EDT    1.38   1.69   12    6   16 -99.9  70.0 -999.9 -9.9 -9.999 -99.9 -99.99 -9.99
2019/05/24 10:54 EDT    1.44   1.72   11   16   17 -99.9  70.0 -999.9 -9.9 -9.999 -99.9 -99.99 -9.99
2019/05/24 11:00 EDT    1.49   1.75   13   11   17 -99.9  69.8 -999.9 -9.9 -9.999 -99.9 -99.99 -9.99
2019/05/24 11:06 EDT    1.54   1.81   12    1   15 -99.9  69.8 -999.9 -9.9 -9.999 -99.9 -99.99 -9.99
2019/05/24 11:12 EDT    1.59   1.84   12   10   16 -99.9  69.8 -999.9 -9.9 -9.999 -99.9 -99.99 -9.99
2019/05/24 11:18 EDT    1.64   1.89   12    5   14 -99.9  69.8 -999.9 -9.9 -9.999 -99.9 -99.99 -9.99
2019/05/24 11:24 EDT    1.69   1.96   12    8   15 -99.9  69.8 -999.9 -9.9 -9.999 -99.9 -99.99 -9.99
2019/05/24 11:30 EDT    1.74   2.02   13    6   17 -99.9  69.8 -999.9 -9.9 -9.999 -99.9 -99.99 -9.99
2019/05/24 11:36 EDT    1.79   2.07   11   12   16 -99.9  69.8 -999.9 -9.9 -9.999 -99.9 -99.99 -9.99
2019/05/24 11:42 EDT    1.83   2.12   14    1   18 -99.9  69.8 -999.9 -9.9 -9.999 -99.9 -99.99 -9.99
2019/05/24 11:48 EDT    1.87   2.19   11    3   18 -99.9  69.8 -999.9 -9.9 -9.999 -99.9 -99.99 -9.99
2019/05/24 11:54 EDT    1.91   2.26   10   13   15 -99.9  69.8 -999.9 -9.9 -9.999 -99.9 -99.99 -9.99
2019/05/24 12:00 EDT    1.95   2.30   11   15   17 -99.9  69.8 -999.9 -9.9 -9.999 -99.9 -99.99 -9.99
2019/05/24 12:06 EDT    1.99   2.33   12    2   17 -99.9  69.8 -999.9 -9.9 -9.999 -99.9 -99.99 -9.99
2019/05/24 12:12 EDT    2.02   2.33   13   10   17 -99.9  70.0 -999.9 -9.9 -9.999 -99.9 -99.99 -9.99
2019/05/24 12:18 EDT    2.06   2.35   13    6   16 -99.9  70.0 -999.9 -9.9 -9.999 -99.9 -99.99 -9.99
2019/05/24 12:24 EDT    2.08   2.40   12    4   17 -99.9  69.8 -999.9 -9.9 -9.999 -99.9 -99.99 -9.99
2019/05/24 12:30 EDT    2.11   2.47   12    3   16 -99.9  69.8 -999.9 -9.9 -9.999 -99.9 -99.99 -9.99
2019/05/24 12:36 EDT    2.14   2.50   13  355   17 -99.9  69.8 -999.9 -9.9 -9.999 -99.9 -99.99 -9.99
2019/05/24 12:42 EDT    2.16   2.53   10   14   15 -99.9  69.8 -999.9 -9.9 -9.999 -99.9 -99.99 -9.99
2019/05/24 12:48 EDT    2.18   2.55   12    8   17 -99.9  69.8 -999.9 -9.9 -9.999 -99.9 -99.99 -9.99
2019/05/24 12:54 EDT    2.20   2.59   13    5   17 -99.9  69.8 -999.9 -9.9 -9.999 -99.9 -99.99 -9.99
2019/05/24 13:00 EDT    2.21   2.62   13  345   19 -99.9  69.8 -999.9 -9.9 -9.999 -99.9 -99.99 -9.99
2019/05/24 13:06 EDT    2.23   2.61   10    8   15 -99.9  69.8 -999.9 -9.9 -9.999 -99.9 -99.99 -9.99
2019/05/24 13:12 EDT    2.24   2.64   12   10   17 -99.9  69.8 -999.9 -9.9 -9.999 -99.9 -99.99 -9.99
2019/05/24 13:18 EDT    2.25   2.63   12   19   18 -99.9  69.8 -999.9 -9.9 -9.999 -99.9 -99.99 -9.99
2019/05/24 13:24 EDT    2.25   2.62   11    9   16 -99.9  69.8 -999.9 -9.9 -9.999 -99.9 -99.99 -9.99
2019/05/24 13:30 EDT    2.26   2.63   11   12   17 -99.9  69.8 -999.9 -9.9 -9.999 -99.9 -99.99 -9.99
2019/05/24 13:36 EDT    2.26   2.64   12   10   17 -99.9  69.8 -999.9 -9.9 -9.999 -99.9 -99.99 -9.99
2019/05/24 13:42 EDT    2.26   2.66   10   17   18 -99.9  69.8 -999.9 -9.9 -9.999 -99.9 -99.99 -9.99
2019/05/24 13:48 EDT    2.26   2.65   13    7   18 -99.9  69.6 -999.9 -9.9 -9.999 -99.9 -99.99 -9.99
2019/05/24 13:54 EDT    2.25   2.62   16  356   20 -99.9  69.6 -999.9 -9.9 -9.999 -99.9 -99.99 -9.99
2019/05/24 14:00 EDT    2.25   2.61   14   13   21 -99.9  69.6 -999.9 -9.9 -9.999 -99.9 -99.99 -9.99
2019/05/24 14:06 EDT    2.24   2.59   14    9   18 -99.9  69.8 -999.9 -9.9 -9.999 -99.9 -99.99 -9.99
2019/05/24 14:12 EDT    2.23   2.58   11   12   15 -99.9  70.0 -999.9 -9.9 -9.999 -99.9 -99.99 -9.99
2019/05/24 14:18 EDT    2.21   2.56   11  358   14 -99.9  70.3 -999.9 -9.9 -9.999 -99.9 -99.99 -9.99
2019/05/24 14:24 EDT    2.20   2.53   13  356   17 -99.9 -99.9 -999.9 -9.9 -9.999 -99.9 -99.99 -9.99
2019/05/24 14:30 EDT    2.18   2.50   13  352   23 -99.9  71.8 -999.9 -9.9 -9.999 -99.9 -99.99 -9.99
2019/05/24 14:36 EDT    2.16   2.47   14  350   17 -99.9  72.1 -999.9 -9.9 -9.999 -99.9 -99.99 -9.99
2019/05/24 14:42 EDT    2.14   2.47   11    4   18 -99.9  72.5 -999.9 -9.9 -9.999 -99.9 -99.99 -9.99
2019/05/24 14:48 EDT    2.12   2.46   12  357   15 -99.9  72.5 -999.9 -9.9 -9.999 -99.9 -99.99 -9.99
2019/05/24 14:54 EDT    2.09   2.43   12   10   18 -99.9  72.5 -999.9 -9.9 -9.999 -99.9 -99.99 -9.99
2019/05/24 15:00 EDT    2.07   2.39   13    5   16 -99.9  72.3 -999.9 -9.9 -9.999 -99.9 -99.99 -9.99
2019/05/24 15:06 EDT    2.04   2.36   12  358   18 -99.9  71.8 -999.9 -9.9 -9.999 -99.9 -99.99 -9.99
2019/05/24 15:12 EDT    2.01   2.34   12   14   18 -99.9  71.6 -999.9 -9.9 -9.999 -99.9 -99.99 -9.99
2019/05/24 15:18 EDT    1.98   2.32   11   16   17 -99.9  71.6 -999.9 -9.9 -9.999 -99.9 -99.99 -9.99
2019/05/24 15:24 EDT    1.94   2.30   11    9   16 -99.9  71.6 -999.9 -9.9 -9.999 -99.9 -99.99 -9.99
2019/05/24 15:30 EDT    1.91   2.27   12   11   17 -99.9  71.4 -999.9 -9.9 -9.999 -99.9 -99.99 -9.99
2019/05/24 15:36 EDT    1.87   2.24   14    6   19 -99.9  71.6 -999.9 -9.9 -9.999 -99.9 -99.99 -9.99
2019/05/24 15:42 EDT    1.83   2.20   15    6   19 -99.9  72.0 -999.9 -9.9 -9.999 -99.9 -99.99 -9.99
2019/05/24 15:48 EDT    1.79   2.17   14    7   18 -99.9  72.0 -999.9 -9.9 -9.999 -99.9 -99.99 -9.99
2019/05/24 15:54 EDT    1.75   2.10   12   10   17 -99.9  71.6 -999.9 -9.9 -9.999 -99.9 -99.99 -9.99
2019/05/24 16:00 EDT    1.70   2.05   11   14   15 -99.9  71.2 -999.9 -9.9 -9.999 -99.9 -99.99 -9.99
2019/05/24 16:06 EDT    1.66   1.97   12   11   16 -99.9  71.1 -999.9 -9.9 -9.999 -99.9 -99.99 -9.99
2019/05/24 16:12 EDT    1.61   1.96   15  360   19 -99.9  70.9 -999.9 -9.9 -9.999 -99.9 -99.99 -9.99
2019/05/24 16:18 EDT    1.57   1.93   15    8   18 -99.9  70.9 -999.9 -9.9 -9.999 -99.9 -99.99 -9.99
2019/05/24 16:24 EDT    1.52   1.88   15   12   19 -99.9  70.7 -999.9 -9.9 -9.999 -99.9 -99.99 -9.99
2019/05/24 16:30 EDT    1.47   1.80   13    3   21 -99.9  70.7 -999.9 -9.9 -9.999 -99.9 -99.99 -9.99
2019/05/24 16:36 EDT    1.42   1.75   13   11   18 -99.9  70.7 -999.9 -9.9 -9.999 -99.9 -99.99 -9.99
2019/05/24 16:42 EDT    1.37   1.71   15   13   18 -99.9  70.7 -999.9 -9.9 -9.999 -99.9 -99.99 -9.99
2019/05/24 16:48 EDT    1.32   1.65   13    6   18 -99.9  70.7 -999.9 -9.9 -9.999 -99.9 -99.99 -9.99
2019/05/24 16:54 EDT    1.28   1.61   14   15   17 -99.9  70.7 -999.9 -9.9 -9.999 -99.9 -99.99 -9.99
2019/05/24 17:00 EDT    1.23   1.54   12   10   18 -99.9  70.7 -999.9 -9.9 -9.999 -99.9 -99.99 -9.99
2019/05/24 17:06 EDT    1.18   1.50   14   16   18 -99.9  70.7 -999.9 -9.9 -9.999 -99.9 -99.99 -9.99
2019/05/24 17:12 EDT    1.13   1.44   10   14   17 -99.9  70.7 -999.9 -9.9 -9.999 -99.9 -99.99 -9.99
2019/05/24 17:18 EDT    1.08   1.37    9    9   16 -99.9  70.7 -999.9 -9.9 -9.999 -99.9 -99.99 -9.99
2019/05/24 17:24 EDT    1.04   1.32   14    6   17 -99.9  70.5 -999.9 -9.9 -9.999 -99.9 -99.99 -9.99
2019/05/24 17:30 EDT    0.99   1.28   12   17   16 -99.9  70.5 -999.9 -9.9 -9.999 -99.9 -99.99 -9.99
2019/05/24 17:36 EDT    0.95   1.21    9   15   17 -99.9  70.5 -999.9 -9.9 -9.999 -99.9 -99.99 -9.99
2019/05/24 17:42 EDT    0.91   1.21   12   13   16 -99.9  70.5 -999.9 -9.9 -9.999 -99.9 -99.99 -9.99
2019/05/24 17:48 EDT    0.87   1.16   11   11   17 -99.9  70.5 -999.9 -9.9 -9.999 -99.9 -99.99 -9.99
2019/05/24 17:54 EDT    0.83   1.12    9   12   15 -99.9  70.3 -999.9 -9.9 -9.999 -99.9 -99.99 -9.99
2019/05/24 18:00 EDT    0.79   1.10   10   18   16 -99.9  70.3 -999.9 -9.9 -9.999 -99.9 -99.99 -9.99
2019/05/24 18:06 EDT    0.75   1.05   12   17   15 -99.9  70.2 -999.9 -9.9 -9.999 -99.9 -99.99 -9.99
2019/05/24 18:12 EDT    0.72   1.02   10   13   14 -99.9  70.2 -999.9 -9.9 -9.999 -99.9 -99.99 -9.99
2019/05/24 18:18 EDT    0.69   0.97   11   14   13 -99.9  70.2 -999.9 -9.9 -9.999 -99.9 -99.99 -9.99
2019/05/24 18:24 EDT    0.66   0.94    9   20   14 -99.9  70.2 -999.9 -9.9 -9.999 -99.9 -99.99 -9.99
2019/05/24 18:30 EDT    0.63   0.93   10   15   15 -99.9  70.2 -999.9 -9.9 -9.999 -99.9 -99.99 -9.99
2019/05/24 18:36 EDT    0.61   0.90    8   19   11 -99.9  70.2 -999.9 -9.9 -9.999 -99.9 -99.99 -9.99
2019/05/24 18:42 EDT    0.58   0.87   11   23   15 -99.9  70.2 -999.9 -9.9 -9.999 -99.9 -99.99 -9.99
2019/05/24 18:48 EDT    0.56   0.84   10   19   16 -99.9  70.2 -999.9 -9.9 -9.999 -99.9 -99.99 -9.99
2019/05/24 18:54 EDT    0.54   0.82   10   18   13 -99.9  70.2 -999.9 -9.9 -9.999 -99.9 -99.99 -9.99
2019/05/24 19:00 EDT    0.53   0.79    9   17   12 -99.9  70.2 -999.9 -9.9 -9.999 -99.9 -99.99 -9.99
2019/05/24 19:06 EDT    0.51   0.75    9   18   13 -99.9  70.2 -999.9 -9.9 -9.999 -99.9 -99.99 -9.99
2019/05/24 19:12 EDT    0.50   0.74    8   28   15 -99.9  70.2 -999.9 -9.9 -9.999 -99.9 -99.99 -9.99
2019/05/24 19:18 EDT    0.49   0.71    9   25   12 -99.9  70.0 -999.9 -9.9 -9.999 -99.9 -99.99 -9.99
2019/05/24 19:24 EDT    0.49   0.71    8   21   12 -99.9  70.0 -999.9 -9.9 -9.999 -99.9 -99.99 -9.99
2019/05/24 19:30 EDT    0.48   0.70    7   31   12 -99.9  70.3 -999.9 -9.9 -9.999 -99.9 -99.99 -9.99
2019/05/24 19:36 EDT    0.48   0.67    7   31   11 -99.9  70.3 -999.9 -9.9 -9.999 -99.9 -99.99 -9.99
2019/05/24 19:42 EDT    0.48   0.66    6   37   10 -99.9  70.3 -999.9 -9.9 -9.999 -99.9 -99.99 -9.99
2019/05/24 19:48 EDT    0.48   0.67    7   44   11 -99.9  70.3 -999.9 -9.9 -9.999 -99.9 -99.99 -9.99
2019/05/24 19:54 EDT    0.49   0.68    7   44   11 -99.9  70.3 -999.9 -9.9 -9.999 -99.9 -99.99 -9.99
2019/05/24 20:00 EDT    0.49   0.71    6   39    9 -99.9  70.3 -999.9 -9.9 -9.999 -99.9 -99.99 -9.99
2019/05/24 20:06 EDT    0.50   0.73    7   48   10 -99.9  70.3 -999.9 -9.9 -9.999 -99.9 -99.99 -9.99
2019/05/24 20:12 EDT    0.51   0.75    6   41   10 -99.9  70.3 -999.9 -9.9 -9.999 -99.9 -99.99 -9.99
2019/05/24 20:18 EDT    0.53   0.75    7   43   10 -99.9  70.3 -999.9 -9.9 -9.999 -99.9 -99.99 -9.99
2019/05/24 20:24 EDT    0.54   0.75    6   42    9 -99.9  70.3 -999.9 -9.9 -9.999 -99.9 -99.99 -9.99
2019/05/24 20:30 EDT    0.56   0.73    6   44    9 -99.9  70.3 -999.9 -9.9 -9.999 -99.9 -99.99 -9.99
2019/05/24 20:36 EDT    0.58   0.75    6   44   11 -99.9  70.3 -999.9 -9.9 -9.999 -99.9 -99.99 -9.99
2019/05/24 20:42 EDT    0.60   0.76    5   43   10 -99.9  70.3 -999.9 -9.9 -9.999 -99.9 -99.99 -9.99
2019/05/24 20:48 EDT    0.63   0.79    5   45    8 -99.9  70.3 -999.9 -9.9 -9.999 -99.9 -99.99 -9.99
2019/05/24 20:54 EDT    0.65   0.80    4   45    6 -99.9  70.2 -999.9 -9.9 -9.999 -99.9 -99.99 -9.99
2019/05/24 21:00 EDT    0.68   0.83    4   35    6 -99.9  70.2 -999.9 -9.9 -9.999 -99.9 -99.99 -9.99
2019/05/24 21:06 EDT    0.71   0.90    4   33    6 -99.9  70.2 -999.9 -9.9 -9.999 -99.9 -99.99 -9.99
2019/05/24 21:12 EDT    0.74   0.95    5   40    7 -99.9  70.0 -999.9 -9.9 -9.999 -99.9 -99.99 -9.99
2019/05/24 21:18 EDT    0.78   0.97    4   37    6 -99.9  70.0 -999.9 -9.9 -9.999 -99.9 -99.99 -9.99
2019/05/24 21:24 EDT    0.82   0.98    5   42    6 -99.9  69.8 -999.9 -9.9 -9.999 -99.9 -99.99 -9.99
2019/05/24 21:30 EDT    0.85   1.00    4   44    6 -99.9  69.8 -999.9 -9.9 -9.999 -99.9 -99.99 -9.99
2019/05/24 21:36 EDT    0.90   1.04    3   48    6 -99.9  69.8 -999.9 -9.9 -9.999 -99.9 -99.99 -9.99
2019/05/24 21:42 EDT    0.94   1.08    3   45    6 -99.9  69.8 -999.9 -9.9 -9.999 -99.9 -99.99 -9.99
2019/05/24 21:48 EDT    0.98   1.14    5   41    8 -99.9  69.8 -999.9 -9.9 -9.999 -99.9 -99.99 -9.99
2019/05/24 21:54 EDT    1.03   1.17    4   38    6 -99.9  69.8 -999.9 -9.9 -9.999 -99.9 -99.99 -9.99
2019/05/24 22:00 EDT    1.08   1.22    4   33    6 -99.9  69.8 -999.9 -9.9 -9.999 -99.9 -99.99 -9.99
2019/05/24 22:06 EDT    1.13   1.27    4   31    6 -99.9  69.8 -999.9 -9.9 -9.999 -99.9 -99.99 -9.99
2019/05/24 22:12 EDT    1.18   1.33    4   33    5 -99.9  69.8 -999.9 -9.9 -9.999 -99.9 -99.99 -9.99
2019/05/24 22:18 EDT    1.23   1.37    3   49    4 -99.9  69.8 -999.9 -9.9 -9.999 -99.9 -99.99 -9.99
2019/05/24 22:24 EDT    1.28   1.42    2   65    3 -99.9  69.8 -999.9 -9.9 -9.999 -99.9 -99.99 -9.99
2019/05/24 22:30 EDT    1.34   1.47    2  108    2 -99.9  69.8 -999.9 -9.9 -9.999 -99.9 -99.99 -9.99
2019/05/24 22:36 EDT    1.39   1.50    1  124    2 -99.9  69.6 -999.9 -9.9 -9.999 -99.9 -99.99 -9.99
2019/05/24 22:42 EDT    1.45   1.58    2  130    2 -99.9  69.6 -999.9 -9.9 -9.999 -99.9 -99.99 -9.99
2019/05/24 22:48 EDT    1.50   1.64    2  142    2 -99.9  69.4 -999.9 -9.9 -9.999 -99.9 -99.99 -9.99
2019/05/24 22:54 EDT    1.56   1.69    2  141    3 -99.9  69.4 -999.9 -9.9 -9.999 -99.9 -99.99 -9.99
2019/05/24 23:00 EDT    1.62   1.73    2  145    2 -99.9  69.3 -999.9 -9.9 -9.999 -99.9 -99.99 -9.99
2019/05/24 23:06 EDT    1.67   1.76    2  150    3 -99.9  69.3 -999.9 -9.9 -9.999 -99.9 -99.99 -9.99
2019/05/24 23:12 EDT    1.73   1.82    3  151    3 -99.9  69.3 -999.9 -9.9 -9.999 -99.9 -99.99 -9.99
2019/05/24 23:18 EDT    1.78   1.86    4  155    4 -99.9  69.3 -999.9 -9.9 -9.999 -99.9 -99.99 -9.99
2019/05/24 23:24 EDT    1.84   1.93    4  149    5 -99.9  69.3 -999.9 -9.9 -9.999 -99.9 -99.99 -9.99
2019/05/24 23:30 EDT    1.89   1.99    5  149    7 -99.9  69.1 -999.9 -9.9 -9.999 -99.9 -99.99 -9.99
2019/05/24 23:36 EDT    1.95   2.05    3  149    6 -99.9  69.1 -999.9 -9.9 -9.999 -99.9 -99.99 -9.99
2019/05/24 23:42 EDT    2.00   2.08    3  139    4 -99.9  69.1 -999.9 -9.9 -9.999 -99.9 -99.99 -9.99
2019/05/24 23:48 EDT    2.05   2.13    5  136    6 -99.9  69.3 -999.9 -9.9 -9.999 -99.9 -99.99 -9.99
2019/05/24 23:54 EDT    2.09   2.19    5  129    5 -99.9  69.3 -999.9 -9.9 -9.999 -99.9 -99.99 -9.99
2019/05/25 00:00 EDT    2.14   2.27    3   95    5 -99.9  69.3 -999.9 -9.9 -9.999 -99.9 -99.99 -9.99
2019/05/25 00:06 EDT    2.19   2.32    3   81    4 -99.9  69.3 -999.9 -9.9 -9.999 -99.9 -99.99 -9.99
2019/05/25 00:12 EDT    2.23   2.36    3   93    4 -99.9  69.4 -999.9 -9.9 -9.999 -99.9 -99.99 -9.99
2019/05/25 00:18 EDT    2.27   2.39    3  110    4 -99.9  69.4 -999.9 -9.9 -9.999 -99.9 -99.99 -9.99
2019/05/25 00:24 EDT    2.31   2.42    3  125    3 -99.9  69.4 -999.9 -9.9 -9.999 -99.9 -99.99 -9.99
2019/05/25 00:30 EDT    2.34   2.49    2  151    3 -99.9  69.6 -999.9 -9.9 -9.999 -99.9 -99.99 -9.99
2019/05/25 00:36 EDT    2.37   2.53    1  134    2 -99.9  69.6 -999.9 -9.9 -9.999 -99.9 -99.99 -9.99
2019/05/25 00:42 EDT    2.41   2.57    0  139    1 -99.9  69.6 -999.9 -9.9 -9.999 -99.9 -99.99 -9.99
2019/05/25 00:48 EDT    2.43   2.61    0  139    0 -99.9  69.6 -999.9 -9.9 -9.999 -99.9 -99.99 -9.99
2019/05/25 00:54 EDT    2.46   2.64    1  149    1 -99.9  69.6 -999.9 -9.9 -9.999 -99.9 -99.99 -9.99
2019/05/25 01:00 EDT    2.48   2.65    0  168    1 -99.9  69.6 -999.9 -9.9 -9.999 -99.9 -99.99 -9.99
2019/05/25 01:06 EDT    2.50   2.67    1   84    1 -99.9  69.8 -999.9 -9.9 -9.999 -99.9 -99.99 -9.99
2019/05/25 01:12 EDT    2.52   2.70    2   70    2 -99.9  69.8 -999.9 -9.9 -9.999 -99.9 -99.99 -9.99
2019/05/25 01:18 EDT    2.54   2.72    3   50    3 -99.9  69.8 -999.9 -9.9 -9.999 -99.9 -99.99 -9.99
2019/05/25 01:24 EDT    2.55   2.73    2   91    3 -99.9  69.8 -999.9 -9.9 -9.999 -99.9 -99.99 -9.99
2019/05/25 01:30 EDT    2.56   2.75    2  120    2 -99.9  69.8 -999.9 -9.9 -9.999 -99.9 -99.99 -9.99
2019/05/25 01:36 EDT    2.57   2.76    2  132    2 -99.9  69.8 -999.9 -9.9 -9.999 -99.9 -99.99 -9.99
2019/05/25 01:42 EDT    2.57   2.77    3  133    3 -99.9  70.0 -999.9 -9.9 -9.999 -99.9 -99.99 -9.99
2019/05/25 01:48 EDT    2.58   2.77    3  163    3 -99.9  70.0 -999.9 -9.9 -9.999 -99.9 -99.99 -9.99
2019/05/25 01:54 EDT    2.58   2.78    2  177    3 -99.9  70.0 -999.9 -9.9 -9.999 -99.9 -99.99 -9.99
2019/05/25 02:00 EDT    2.57   2.76    4  162    4 -99.9  70.0 -999.9 -9.9 -9.999 -99.9 -99.99 -9.99
2019/05/25 02:06 EDT    2.57   2.76    4  172    6 -99.9  70.0 -999.9 -9.9 -9.999 -99.9 -99.99 -9.99
2019/05/25 02:12 EDT    2.56   2.77    5  166    6 -99.9  70.0 -999.9 -9.9 -9.999 -99.9 -99.99 -9.99
2019/05/25 02:18 EDT    2.56   2.75    4  137    5 -99.9  70.0 -999.9 -9.9 -9.999 -99.9 -99.99 -9.99
2019/05/25 02:24 EDT    2.55   2.73    8   97    9 -99.9  70.0 -999.9 -9.9 -9.999 -99.9 -99.99 -9.99
2019/05/25 02:30 EDT    2.53   2.73    6   99    7 -99.9  69.8 -999.9 -9.9 -9.999 -99.9 -99.99 -9.99
2019/05/25 02:36 EDT    2.52   2.73    5  101    8 -99.9  69.8 -999.9 -9.9 -9.999 -99.9 -99.99 -9.99
2019/05/25 02:42 EDT    2.50   2.73    5   94    6 -99.9  69.8 -999.9 -9.9 -9.999 -99.9 -99.99 -9.99
2019/05/25 02:48 EDT    2.48   2.71    5   94    8 -99.9  69.8 -999.9 -9.9 -9.999 -99.9 -99.99 -9.99
2019/05/25 02:54 EDT    2.46   2.67    7  107   10 -99.9  69.8 -999.9 -9.9 -9.999 -99.9 -99.99 -9.99
2019/05/25 03:00 EDT    2.44   2.64    6   89    8 -99.9  69.8 -999.9 -9.9 -9.999 -99.9 -99.99 -9.99
2019/05/25 03:06 EDT    2.41   2.59    6   92   10 -99.9  69.8 -999.9 -9.9 -9.999 -99.9 -99.99 -9.99
2019/05/25 03:12 EDT    2.39   2.57    6   95    8 -99.9  69.8 -999.9 -9.9 -9.999 -99.9 -99.99 -9.99
2019/05/25 03:18 EDT    2.36   2.55    5   93    7 -99.9  69.8 -999.9 -9.9 -9.999 -99.9 -99.99 -9.99
2019/05/25 03:24 EDT    2.33   2.54    5   93    8 -99.9  69.8 -999.9 -9.9 -9.999 -99.9 -99.99 -9.99
2019/05/25 03:30 EDT    2.30   2.51    6   87    8 -99.9  69.8 -999.9 -9.9 -9.999 -99.9 -99.99 -9.99
2019/05/25 03:36 EDT    2.26   2.46    5   91    8 -99.9  69.8 -999.9 -9.9 -9.999 -99.9 -99.99 -9.99
2019/05/25 03:42 EDT    2.22   2.44    4  103    6 -99.9  69.8 -999.9 -9.9 -9.999 -99.9 -99.99 -9.99
2019/05/25 03:48 EDT    2.19   2.41    5   99    7 -99.9  69.8 -999.9 -9.9 -9.999 -99.9 -99.99 -9.99
2019/05/25 03:54 EDT    2.15   2.36    4   96    6 -99.9  69.8 -999.9 -9.9 -9.999 -99.9 -99.99 -9.99
2019/05/25 04:00 EDT    2.10   2.34    4   98    6 -99.9  69.8 -999.9 -9.9 -9.999 -99.9 -99.99 -9.99
2019/05/25 04:06 EDT    2.06   2.27    4   99    6 -99.9  69.8 -999.9 -9.9 -9.999 -99.9 -99.99 -9.99
2019/05/25 04:12 EDT    2.01   2.24    4   93    6 -99.9  69.8 -999.9 -9.9 -9.999 -99.9 -99.99 -9.99
2019/05/25 04:18 EDT    1.97   2.17    5   91    7 -99.9  69.8 -999.9 -9.9 -9.999 -99.9 -99.99 -9.99
2019/05/25 04:24 EDT    1.92   2.12    4   96    6 -99.9  69.8 -999.9 -9.9 -9.999 -99.9 -99.99 -9.99
2019/05/25 04:30 EDT    1.87   2.09    5   88    6 -99.9  69.8 -999.9 -9.9 -9.999 -99.9 -99.99 -9.99
2019/05/25 04:36 EDT    1.82   2.07    4   94    7 -99.9  69.8 -999.9 -9.9 -9.999 -99.9 -99.99 -9.99
2019/05/25 04:42 EDT    1.77   2.02    4  117    5 -99.9  69.8 -999.9 -9.9 -9.999 -99.9 -99.99 -9.99
2019/05/25 04:48 EDT    1.72   1.97    3   98    4 -99.9  69.8 -999.9 -9.9 -9.999 -99.9 -99.99 -9.99
2019/05/25 04:54 EDT    1.66   1.91    3   94    5 -99.9  69.8 -999.9 -9.9 -9.999 -99.9 -99.99 -9.99
2019/05/25 05:00 EDT    1.61   1.86    3   88    4 -99.9  69.8 -999.9 -9.9 -9.999 -99.9 -99.99 -9.99
2019/05/25 05:06 EDT    1.56   1.84    3   83    4 -99.9  69.8 -999.9 -9.9 -9.999 -99.9 -99.99 -9.99
2019/05/25 05:12 EDT    1.50   1.78    3   91    3 -99.9  69.8 -999.9 -9.9 -9.999 -99.9 -99.99 -9.99
2019/05/25 05:18 EDT    1.45   1.69    4   91    5 -99.9  69.8 -999.9 -9.9 -9.999 -99.9 -99.99 -9.99
2019/05/25 05:24 EDT    1.39   1.62    4   94    6 -99.9  69.8 -999.9 -9.9 -9.999 -99.9 -99.99 -9.99
2019/05/25 05:30 EDT    1.34   1.56    5   93    6 -99.9  69.8 -999.9 -9.9 -9.999 -99.9 -99.99 -9.99
2019/05/25 05:36 EDT    1.29   1.51    5   98    6 -99.9  69.8 -999.9 -9.9 -9.999 -99.9 -99.99 -9.99
2019/05/25 05:42 EDT    1.23   1.48    5   90    7 -99.9  70.0 -999.9 -9.9 -9.999 -99.9 -99.99 -9.99
2019/05/25 05:48 EDT    1.18   1.41    6  105    8 -99.9  70.0 -999.9 -9.9 -9.999 -99.9 -99.99 -9.99
2019/05/25 05:54 EDT    1.13   1.34    5   95    8 -99.9  70.0 -999.9 -9.9 -9.999 -99.9 -99.99 -9.99
2019/05/25 06:00 EDT    1.08   1.28    5   80    6 -99.9  70.0 -999.9 -9.9 -9.999 -99.9 -99.99 -9.99
2019/05/25 06:06 EDT    1.03   1.25    7   90    8 -99.9  70.0 -999.9 -9.9 -9.999 -99.9 -99.99 -9.99
2019/05/25 06:12 EDT    0.98   1.20    5   83    7 -99.9  70.0 -999.9 -9.9 -9.999 -99.9 -99.99 -9.99
2019/05/25 06:18 EDT    0.94   1.17    6   90    8 -99.9  70.0 -999.9 -9.9 -9.999 -99.9 -99.99 -9.99
2019/05/25 06:24 EDT    0.89   1.11    6   85    8 -99.9  70.0 -999.9 -9.9 -9.999 -99.9 -99.99 -9.99
2019/05/25 06:30 EDT    0.85   1.07    6   85    8 -99.9  70.0 -999.9 -9.9 -9.999 -99.9 -99.99 -9.99
2019/05/25 06:36 EDT    0.81   1.04    6   88    9 -99.9  70.0 -999.9 -9.9 -9.999 -99.9 -99.99 -9.99
2019/05/25 06:42 EDT    0.77   1.02    6   91    8 -99.9  70.0 -999.9 -9.9 -9.999 -99.9 -99.99 -9.99
2019/05/25 06:48 EDT    0.73   0.97    7   95    8 -99.9  70.0 -999.9 -9.9 -9.999 -99.9 -99.99 -9.99
2019/05/25 06:54 EDT    0.70   0.93    8   93   10 -99.9  70.0 -999.9 -9.9 -9.999 -99.9 -99.99 -9.99
2019/05/25 07:00 EDT    0.67   0.88    7   93   11 -99.9  70.0 -999.9 -9.9 -9.999 -99.9 -99.99 -9.99
2019/05/25 07:06 EDT    0.64   0.82    7   91   10 -99.9  70.0 -999.9 -9.9 -9.999 -99.9 -99.99 -9.99
2019/05/25 07:12 EDT    0.61   0.78    7   94    9 -99.9  70.0 -999.9 -9.9 -9.999 -99.9 -99.99 -9.99
2019/05/25 07:18 EDT    0.58   0.75    8   78   10 -99.9  70.0 -999.9 -9.9 -9.999 -99.9 -99.99 -9.99
2019/05/25 07:24 EDT    0.56   0.73    9   89   12 -99.9  70.0 -999.9 -9.9 -9.999 -99.9 -99.99 -9.99
2019/05/25 07:30 EDT    0.54   0.70    8   89   12 -99.9  69.8 -999.9 -9.9 -9.999 -99.9 -99.99 -9.99
2019/05/25 07:36 EDT    0.52   0.68    9   87   12 -99.9  69.8 -999.9 -9.9 -9.999 -99.9 -99.99 -9.99
2019/05/25 07:42 EDT    0.50   0.69    9   86   12 -99.9  69.8 -999.9 -9.9 -9.999 -99.9 -99.99 -9.99
2019/05/25 07:48 EDT    0.48   0.67    9   85   13 -99.9  69.8 -999.9 -9.9 -9.999 -99.9 -99.99 -9.99
2019/05/25 07:54 EDT    0.47   0.65    9   88   12 -99.9  70.0 -999.9 -9.9 -9.999 -99.9 -99.99 -9.99
2019/05/25 08:00 EDT    0.46   0.61    9  110   12 -99.9  70.0 -999.9 -9.9 -9.999 -99.9 -99.99 -9.99
2019/05/25 08:06 EDT    0.45   0.59   11  107   13 -99.9  70.0 -999.9 -9.9 -9.999 -99.9 -99.99 -9.99
2019/05/25 08:12 EDT    0.44   0.58    9   99   12 -99.9  69.8 -999.9 -9.9 -9.999 -99.9 -99.99 -9.99
2019/05/25 08:18 EDT    0.44   0.57    9   85   13 -99.9  70.0 -999.9 -9.9 -9.999 -99.9 -99.99 -9.99
2019/05/25 08:24 EDT    0.43   0.59    9   93   13 -99.9  69.8 -999.9 -9.9 -9.999 -99.9 -99.99 -9.99
2019/05/25 08:30 EDT    0.43   0.60   11   83   15 -99.9  69.8 -999.9 -9.9 -9.999 -99.9 -99.99 -9.99
2019/05/25 08:36 EDT    0.44   0.64   11   90   14 -99.9  69.8 -999.9 -9.9 -9.999 -99.9 -99.99 -9.99
2019/05/25 08:42 EDT    0.44   0.67   10   94   14 -99.9  69.8 -999.9 -9.9 -9.999 -99.9 -99.99 -9.99
2019/05/25 08:48 EDT    0.44   0.67   11  103   13 -99.9  69.6 -999.9 -9.9 -9.999 -99.9 -99.99 -9.99
2019/05/25 08:54 EDT    0.45   0.66   10  100   14 -99.9  69.6 -999.9 -9.9 -9.999 -99.9 -99.99 -9.99
2019/05/25 09:00 EDT    0.46   0.67   12  100   16 -99.9  69.6 -999.9 -9.9 -9.999 -99.9 -99.99 -9.99
2019/05/25 09:06 EDT    0.47   0.68   10  100   15 -99.9  69.6 -999.9 -9.9 -9.999 -99.9 -99.99 -9.99
2019/05/25 09:12 EDT    0.49   0.71   11  102   15 -99.9  69.6 -999.9 -9.9 -9.999 -99.9 -99.99 -9.99
2019/05/25 09:18 EDT    0.51   0.73    9   98   14 -99.9  69.6 -999.9 -9.9 -9.999 -99.9 -99.99 -9.99
2019/05/25 09:24 EDT    0.52   0.78   13  102   15 -99.9  69.6 -999.9 -9.9 -9.999 -99.9 -99.99 -9.99
2019/05/25 09:30 EDT    0.54   0.79   12   98   15 -99.9  69.6 -999.9 -9.9 -9.999 -99.9 -99.99 -9.99
2019/05/25 09:36 EDT    0.57   0.82   11  100   15 -99.9  69.6 -999.9 -9.9 -9.999 -99.9 -99.99 -9.99
2019/05/25 09:42 EDT    0.59   0.90   10   94   17 -99.9  69.6 -999.9 -9.9 -9.999 -99.9 -99.99 -9.99
2019/05/25 09:48 EDT    0.62   0.94   12  108   14 -99.9  69.8 -999.9 -9.9 -9.999 -99.9 -99.99 -9.99
2019/05/25 09:54 EDT    0.65   0.99   11   98   15 -99.9  70.0 -999.9 -9.9 -9.999 -99.9 -99.99 -9.99
2019/05/25 10:00 EDT    0.68   1.03   10   88   16 -99.9  70.0 -999.9 -9.9 -9.999 -99.9 -99.99 -9.99
2019/05/25 10:06 EDT    0.71   1.06   11  101   15 -99.9  70.2 -999.9 -9.9 -9.999 -99.9 -99.99 -9.99
2019/05/25 10:12 EDT    0.75   1.10   11   98   16 -99.9  70.2 -999.9 -9.9 -9.999 -99.9 -99.99 -9.99
2019/05/25 10:18 EDT    0.79   1.15   10  104   16 -99.9  70.2 -999.9 -9.9 -9.999 -99.9 -99.99 -9.99
2019/05/25 10:24 EDT    0.83   1.19   12  102   16 -99.9  70.2 -999.9 -9.9 -9.999 -99.9 -99.99 -9.99
2019/05/25 10:30 EDT    0.87   1.25   10  107   15 -99.9  70.0 -999.9 -9.9 -9.999 -99.9 -99.99 -9.99
2019/05/25 10:36 EDT    0.91   1.32   10   95   13 -99.9  70.0 -999.9 -9.9 -9.999 -99.9 -99.99 -9.99
2019/05/25 10:42 EDT    0.95   1.38    9   97   12 -99.9  70.0 -999.9 -9.9 -9.999 -99.9 -99.99 -9.99
2019/05/25 10:48 EDT    1.00   1.43   10   92   15 -99.9  70.2 -999.9 -9.9 -9.999 -99.9 -99.99 -9.99
2019/05/25 10:54 EDT    1.04   1.49    9  108   13 -99.9  70.3 -999.9 -9.9 -9.999 -99.9 -99.99 -9.99
2019/05/25 11:00 EDT    1.09   1.57    9  111   13 -99.9  70.5 -999.9 -9.9 -9.999 -99.9 -99.99 -9.99
2019/05/25 11:06 EDT    1.14   1.59    8  116   13 -99.9  70.5 -999.9 -9.9 -9.999 -99.9 -99.99 -9.99
2019/05/25 11:12 EDT    1.19   1.63    9   94   13 -99.9  70.7 -999.9 -9.9 -9.999 -99.9 -99.99 -9.99
2019/05/25 11:18 EDT    1.24   1.70    8  113   12 -99.9  70.7 -999.9 -9.9 -9.999 -99.9 -99.99 -9.99
2019/05/25 11:24 EDT    1.29   1.74    8   95   13 -99.9  70.7 -999.9 -9.9 -9.999 -99.9 -99.99 -9.99
2019/05/25 11:30 EDT    1.34   1.80    9   95   13 -99.9  70.9 -999.9 -9.9 -9.999 -99.9 -99.99 -9.99
2019/05/25 11:36 EDT    1.39   1.84   11  106   13 -99.9  70.9 -999.9 -9.9 -9.999 -99.9 -99.99 -9.99
2019/05/25 11:42 EDT    1.44   1.88   11   98   14 -99.9  70.9 -999.9 -9.9 -9.999 -99.9 -99.99 -9.99
2019/05/25 11:48 EDT    1.49   1.94   11  118   13 -99.9  70.9 -999.9 -9.9 -9.999 -99.9 -99.99 -9.99
2019/05/25 11:54 EDT    1.54   2.00    7  113   14 -99.9  70.9 -999.9 -9.9 -9.999 -99.9 -99.99 -9.99
2019/05/25 12:00 EDT    1.59   2.06   10  103   13 -99.9  71.1 -999.9 -9.9 -9.999 -99.9 -99.99 -9.99
2019/05/25 12:06 EDT    1.63   2.13   11  100   14 -99.9  71.2 -999.9 -9.9 -9.999 -99.9 -99.99 -9.99
2019/05/25 12:12 EDT    1.68   2.15   11  105   14 -99.9  71.2 -999.9 -9.9 -9.999 -99.9 -99.99 -9.99
2019/05/25 12:18 EDT    1.73   2.20   10   98   15 -99.9  71.2 -999.9 -9.9 -9.999 -99.9 -99.99 -9.99
2019/05/25 12:24 EDT    1.77   2.24    9  105   14 -99.9  71.4 -999.9 -9.9 -9.999 -99.9 -99.99 -9.99
2019/05/25 12:30 EDT    1.81   2.29   11  106   15 -99.9  71.4 -999.9 -9.9 -9.999 -99.9 -99.99 -9.99
2019/05/25 12:36 EDT    1.85   2.33   12   95   15 -99.9  71.4 -999.9 -9.9 -9.999 -99.9 -99.99 -9.99
2019/05/25 12:42 EDT    1.89   2.38   11  111   16 -99.9  71.6 -999.9 -9.9 -9.999 -99.9 -99.99 -9.99
2019/05/25 12:48 EDT    1.93   2.43   12  120   14 -99.9  71.6 -999.9 -9.9 -9.999 -99.9 -99.99 -9.99
2019/05/25 12:54 EDT    1.96   2.45    9   92   15 -99.9  71.6 -999.9 -9.9 -9.999 -99.9 -99.99 -9.99
2019/05/25 13:00 EDT    2.00   2.52   13  113   15 -99.9  71.6 -999.9 -9.9 -9.999 -99.9 -99.99 -9.99
2019/05/25 13:06 EDT    2.03   2.57   11  115   14 -99.9  71.6 -999.9 -9.9 -9.999 -99.9 -99.99 -9.99
2019/05/25 13:12 EDT    2.06   2.61   11  103   16 -99.9  71.8 -999.9 -9.9 -9.999 -99.9 -99.99 -9.99
2019/05/25 13:18 EDT    2.08   2.64   10  115   15 -99.9  71.8 -999.9 -9.9 -9.999 -99.9 -99.99 -9.99
2019/05/25 13:24 EDT    2.11   2.67   10   84   13 -99.9  71.8 -999.9 -9.9 -9.999 -99.9 -99.99 -9.99
2019/05/25 13:30 EDT    2.13   2.68   12  102   15 -99.9  71.6 -999.9 -9.9 -9.999 -99.9 -99.99 -9.99
2019/05/25 13:36 EDT    2.15   2.70   11  109   15 -99.9  71.6 -999.9 -9.9 -9.999 -99.9 -99.99 -9.99
2019/05/25 13:42 EDT    2.17   2.72   11   98   15 -99.9  71.8 -999.9 -9.9 -9.999 -99.9 -99.99 -9.99
2019/05/25 13:48 EDT    2.18   2.78   11  104   14 -99.9  71.8 -999.9 -9.9 -9.999 -99.9 -99.99 -9.99
2019/05/25 13:54 EDT    2.20   2.79   11  125   15 -99.9  71.6 -999.9 -9.9 -9.999 -99.9 -99.99 -9.99
2019/05/25 14:00 EDT    2.21   2.79   12   97   15 -99.9  71.6 -999.9 -9.9 -9.999 -99.9 -99.99 -9.99
2019/05/25 14:06 EDT    2.22   2.78   13  117   16 -99.9  71.8 -999.9 -9.9 -9.999 -99.9 -99.99 -9.99
2019/05/25 14:12 EDT    2.23   2.79   10  113   15 -99.9  71.8 -999.9 -9.9 -9.999 -99.9 -99.99 -9.99
2019/05/25 14:18 EDT    2.23   2.79   12  109   15 -99.9  72.1 -999.9 -9.9 -9.999 -99.9 -99.99 -9.99
2019/05/25 14:24 EDT    2.23   2.79   12  114   16 -99.9  72.3 -999.9 -9.9 -9.999 -99.9 -99.99 -9.99
2019/05/25 14:30 EDT    2.24   2.80   11  121   15 -99.9  72.5 -999.9 -9.9 -9.999 -99.9 -99.99 -9.99
2019/05/25 14:36 EDT    2.23   2.77   13  107   16 -99.9  72.7 -999.9 -9.9 -9.999 -99.9 -99.99 -9.99
2019/05/25 14:42 EDT    2.23   2.80   12  116   16 -99.9  72.7 -999.9 -9.9 -9.999 -99.9 -99.99 -9.99
2019/05/25 14:48 EDT    2.23   2.80   10  116   15 -99.9  72.5 -999.9 -9.9 -9.999 -99.9 -99.99 -9.99
2019/05/25 14:54 EDT    2.22   2.79   10  118   15 -99.9  72.5 -999.9 -9.9 -9.999 -99.9 -99.99 -9.99
2019/05/25 15:00 EDT    2.21   2.78   12  130   15 -99.9  72.5 -999.9 -9.9 -9.999 -99.9 -99.99 -9.99
2019/05/25 15:06 EDT    2.20   2.77   13  118   17 -99.9  72.5 -999.9 -9.9 -9.999 -99.9 -99.99 -9.99
2019/05/25 15:12 EDT    2.19   2.75   13  112   16 -99.9  72.3 -999.9 -9.9 -9.999 -99.9 -99.99 -9.99
2019/05/25 15:18 EDT    2.18   2.72   11  104   15 -99.9  71.4 -999.9 -9.9 -9.999 -99.9 -99.99 -9.99
2019/05/25 15:24 EDT    2.16   2.71   11  113   15 -99.9  71.1 -999.9 -9.9 -9.999 -99.9 -99.99 -9.99
2019/05/25 15:30 EDT    2.14   2.68   12  113   16 -99.9  70.9 -999.9 -9.9 -9.999 -99.9 -99.99 -9.99
2019/05/25 15:36 EDT    2.12   2.66   13  128   17 -99.9  70.7 -999.9 -9.9 -9.999 -99.9 -99.99 -9.99
2019/05/25 15:42 EDT    2.10   2.67   14  124   18 -99.9  70.7 -999.9 -9.9 -9.999 -99.9 -99.99 -9.99
2019/05/25 15:48 EDT    2.08   2.65   14  126   18 -99.9  70.5 -999.9 -9.9 -9.999 -99.9 -99.99 -9.99
2019/05/25 15:54 EDT    2.06   2.62   14  126   17 -99.9  70.5 -999.9 -9.9 -9.999 -99.9 -99.99 -9.99
2019/05/25 16:00 EDT    2.03   2.62   13  112   16 -99.9  70.5 -999.9 -9.9 -9.999 -99.9 -99.99 -9.99
2019/05/25 16:06 EDT    2.00   2.60   10  128   15 -99.9  70.5 -999.9 -9.9 -9.999 -99.9 -99.99 -9.99
2019/05/25 16:12 EDT    1.97   2.57   13  143   16 -99.9  70.5 -999.9 -9.9 -9.999 -99.9 -99.99 -9.99
2019/05/25 16:18 EDT    1.94   2.54   11  126   16 -99.9  70.5 -999.9 -9.9 -9.999 -99.9 -99.99 -9.99
2019/05/25 16:24 EDT    1.90   2.50   12  135   16 -99.9  70.5 -999.9 -9.9 -9.999 -99.9 -99.99 -9.99
2019/05/25 16:30 EDT    1.87   2.47   14  131   19 -99.9  70.5 -999.9 -9.9 -9.999 -99.9 -99.99 -9.99
2019/05/25 16:36 EDT    1.83   2.43   14  132   17 -99.9  70.5 -999.9 -9.9 -9.999 -99.9 -99.99 -9.99
2019/05/25 16:42 EDT    1.79   2.37   14  135   18 -99.9  70.5 -999.9 -9.9 -9.999 -99.9 -99.99 -9.99
2019/05/25 16:48 EDT    1.75   2.34   13  134   18 -99.9  70.5 -999.9 -9.9 -9.999 -99.9 -99.99 -9.99
2019/05/25 16:54 EDT    1.71   2.31   12  133   15 -99.9  70.5 -999.9 -9.9 -9.999 -99.9 -99.99 -9.99
2019/05/25 17:00 EDT    1.67   2.30   14  143   17 -99.9  70.5 -999.9 -9.9 -9.999 -99.9 -99.99 -9.99
2019/05/25 17:06 EDT    1.63   2.28   13  144   18 -99.9  70.5 -999.9 -9.9 -9.999 -99.9 -99.99 -9.99
2019/05/25 17:12 EDT    1.59   2.25   14  146   20 -99.9  70.5 -999.9 -9.9 -9.999 -99.9 -99.99 -9.99
2019/05/25 17:18 EDT    1.54   2.19   13  144   17 -99.9  70.3 -999.9 -9.9 -9.999 -99.9 -99.99 -9.99
2019/05/25 17:24 EDT    1.50   2.16   13  141   19 -99.9  70.3 -999.9 -9.9 -9.999 -99.9 -99.99 -9.99
2019/05/25 17:30 EDT    1.45   2.13   13  146   17 -99.9  70.3 -999.9 -9.9 -9.999 -99.9 -99.99 -9.99
2019/05/25 17:36 EDT    1.40   2.09   16  149   20 -99.9  70.3 -999.9 -9.9 -9.999 -99.9 -99.99 -9.99
2019/05/25 17:42 EDT    1.36   2.04   15  146   18 -99.9  70.3 -999.9 -9.9 -9.999 -99.9 -99.99 -9.99
2019/05/25 17:48 EDT    1.31   2.01   15  152   19 -99.9  70.3 -999.9 -9.9 -9.999 -99.9 -99.99 -9.99
2019/05/25 17:54 EDT    1.27   1.98   14  150   19 -99.9  70.3 -999.9 -9.9 -9.999 -99.9 -99.99 -9.99
2019/05/25 18:00 EDT    1.22   1.96   15  145   20 -99.9  70.3 -999.9 -9.9 -9.999 -99.9 -99.99 -9.99
2019/05/25 18:06 EDT    1.18   1.93   15  137   22 -99.9  70.2 -999.9 -9.9 -9.999 -99.9 -99.99 -9.99
2019/05/25 18:12 EDT    1.13   1.87   15  150   20 -99.9  70.2 -999.9 -9.9 -9.999 -99.9 -99.99 -9.99
2019/05/25 18:18 EDT    1.09   1.85   17  152   19 -99.9  70.2 -999.9 -9.9 -9.999 -99.9 -99.99 -9.99
2019/05/25 18:24 EDT    1.05   1.82   15  149   21 -99.9  70.2 -999.9 -9.9 -9.999 -99.9 -99.99 -9.99
2019/05/25 18:30 EDT    1.01   1.78   17  146   20 -99.9  70.2 -999.9 -9.9 -9.999 -99.9 -99.99 -9.99
2019/05/25 18:36 EDT    0.97   1.76   15  149   20 -99.9  70.3 -999.9 -9.9 -9.999 -99.9 -99.99 -9.99
2019/05/25 18:42 EDT    0.93   1.71   17  151   21 -99.9  70.3 -999.9 -9.9 -9.999 -99.9 -99.99 -9.99
2019/05/25 18:48 EDT    0.89   1.67   16  154   21 -99.9  70.3 -999.9 -9.9 -9.999 -99.9 -99.99 -9.99
2019/05/25 18:54 EDT    0.86   1.64   16  147   20 -99.9  70.3 -999.9 -9.9 -9.999 -99.9 -99.99 -9.99
2019/05/25 19:00 EDT    0.82   1.61   15  151   20 -99.9  70.3 -999.9 -9.9 -9.999 -99.9 -99.99 -9.99
2019/05/25 19:06 EDT    0.79   1.59   15  146   20 -99.9  70.3 -999.9 -9.9 -9.999 -99.9 -99.99 -9.99
2019/05/25 19:12 EDT    0.76   1.58   16  152   18 -99.9  70.3 -999.9 -9.9 -9.999 -99.9 -99.99 -9.99
2019/05/25 19:18 EDT    0.73   1.55   15  153   18 -99.9  70.3 -999.9 -9.9 -9.999 -99.9 -99.99 -9.99
2019/05/25 19:24 EDT    0.71   1.52   16  158   20 -99.9  70.3 -999.9 -9.9 -9.999 -99.9 -99.99 -9.99
2019/05/25 19:30 EDT    0.68   1.50   18  160   21 -99.9  70.3 -999.9 -9.9 -9.999 -99.9 -99.99 -9.99
2019/05/25 19:36 EDT    0.66   1.49   18  161   20 -99.9  70.3 -999.9 -9.9 -9.999 -99.9 -99.99 -9.99
2019/05/25 19:42 EDT    0.64   1.47   16  160   20 -99.9  70.3 -999.9 -9.9 -9.999 -99.9 -99.99 -9.99
2019/05/25 19:48 EDT    0.63   1.46   16  160   20 -99.9  70.3 -999.9 -9.9 -9.999 -99.9 -99.99 -9.99
2019/05/25 19:54 EDT    0.61   1.44   17  158   20 -99.9  70.3 -999.9 -9.9 -9.999 -99.9 -99.99 -9.99
2019/05/25 20:00 EDT    0.60   1.42   16  161   19 -99.9  70.3 -999.9 -9.9 -9.999 -99.9 -99.99 -9.99
2019/05/25 20:06 EDT    0.59   1.42   16  160   19 -99.9  70.5 -999.9 -9.9 -9.999 -99.9 -99.99 -9.99
2019/05/25 20:12 EDT    0.58   1.42   15  158   18 -99.9  70.9 -999.9 -9.9 -9.999 -99.9 -99.99 -9.99
2019/05/25 20:18 EDT    0.57   1.41   14  159   21 -99.9  70.9 -999.9 -9.9 -9.999 -99.9 -99.99 -9.99
2019/05/25 20:24 EDT    0.57   1.43   15  161   19 -99.9  70.9 -999.9 -9.9 -9.999 -99.9 -99.99 -9.99
2019/05/25 20:30 EDT    0.56   1.44   15  162   19 -99.9  71.1 -999.9 -9.9 -9.999 -99.9 -99.99 -9.99
2019/05/25 20:36 EDT    0.56   1.43   16  164   18 -99.9  71.1 -999.9 -9.9 -9.999 -99.9 -99.99 -9.99
2019/05/25 20:42 EDT    0.56   1.41   17  162   20 -99.9  71.1 -999.9 -9.9 -9.999 -99.9 -99.99 -9.99
2019/05/25 20:48 EDT    0.57   1.40   17  164   20 -99.9  71.1 -999.9 -9.9 -9.999 -99.9 -99.99 -9.99
2019/05/25 20:54 EDT    0.57   1.41   16  166   20 -99.9  71.1 -999.9 -9.9 -9.999 -99.9 -99.99 -9.99
2019/05/25 21:00 EDT    0.58   1.45   19  166   21 -99.9  71.2 -999.9 -9.9 -9.999 -99.9 -99.99 -9.99
2019/05/25 21:06 EDT    0.59   1.46   17  166   21 -99.9  71.1 -999.9 -9.9 -9.999 -99.9 -99.99 -9.99
2019/05/25 21:12 EDT    0.60   1.46   15  162   20 -99.9  71.1 -999.9 -9.9 -9.999 -99.9 -99.99 -9.99
2019/05/25 21:18 EDT    0.61   1.49   15  163   20 -99.9  71.1 -999.9 -9.9 -9.999 -99.9 -99.99 -9.99
2019/05/25 21:24 EDT    0.63   1.49   15  163   19 -99.9  71.1 -999.9 -9.9 -9.999 -99.9 -99.99 -9.99
2019/05/25 21:30 EDT    0.65   1.52   15  163   19 -99.9  71.1 -999.9 -9.9 -9.999 -99.9 -99.99 -9.99
2019/05/25 21:36 EDT    0.67   1.56   16  161   21 -99.9  70.9 -999.9 -9.9 -9.999 -99.9 -99.99 -9.99
2019/05/25 21:42 EDT    0.69   1.59   15  162   20 -99.9  70.9 -999.9 -9.9 -9.999 -99.9 -99.99 -9.99
2019/05/25 21:48 EDT    0.71   1.61   16  169   18 -99.9  70.9 -999.9 -9.9 -9.999 -99.9 -99.99 -9.99
2019/05/25 21:54 EDT    0.74   1.64   17  169   21 -99.9  70.9 -999.9 -9.9 -9.999 -99.9 -99.99 -9.99
2019/05/25 22:00 EDT    0.76   1.69   17  168   21 -99.9  70.9 -999.9 -9.9 -9.999 -99.9 -99.99 -9.99
2019/05/25 22:06 EDT    0.79   1.70   17  168   20 -99.9  70.9 -999.9 -9.9 -9.999 -99.9 -99.99 -9.99
2019/05/25 22:12 EDT    0.82   1.71   18  172   21 -99.9  70.9 -999.9 -9.9 -9.999 -99.9 -99.99 -9.99
2019/05/25 22:18 EDT    0.86   1.74   18  172   21 -99.9  70.9 -999.9 -9.9 -9.999 -99.9 -99.99 -9.99
2019/05/25 22:24 EDT    0.89   1.77   17  173   20 -99.9  70.7 -999.9 -9.9 -9.999 -99.9 -99.99 -9.99
2019/05/25 22:30 EDT    0.93   1.81   18  168   22 -99.9  70.7 -999.9 -9.9 -9.999 -99.9 -99.99 -9.99
2019/05/25 22:36 EDT    0.97   1.84   17  169   20 -99.9  70.7 -999.9 -9.9 -9.999 -99.9 -99.99 -9.99
2019/05/25 22:42 EDT    1.01   1.88   18  172   22 -99.9  70.7 -999.9 -9.9 -9.999 -99.9 -99.99 -9.99
2019/05/25 22:48 EDT    1.05   1.93   16  170   20 -99.9  70.7 -999.9 -9.9 -9.999 -99.9 -99.99 -9.99
2019/05/25 22:54 EDT    1.09   1.96   18  170   21 -99.9  70.7 -999.9 -9.9 -9.999 -99.9 -99.99 -9.99
2019/05/25 23:00 EDT    1.14   2.04   17  172   20 -99.9  70.7 -999.9 -9.9 -9.999 -99.9 -99.99 -9.99
2019/05/25 23:06 EDT    1.19   2.07   18  174   20 -99.9  70.7 -999.9 -9.9 -9.999 -99.9 -99.99 -9.99
2019/05/25 23:12 EDT    1.23   2.10   17  174   19 -99.9  70.7 -999.9 -9.9 -9.999 -99.9 -99.99 -9.99
2019/05/25 23:18 EDT    1.28   2.12   17  174   19 -99.9  70.7 -999.9 -9.9 -9.999 -99.9 -99.99 -9.99
2019/05/25 23:24 EDT    1.33   2.15   16  177   19 -99.9  70.7 -999.9 -9.9 -9.999 -99.9 -99.99 -9.99
2019/05/25 23:30 EDT    1.38   2.17   16  179   18 -99.9  70.7 -999.9 -9.9 -9.999 -99.9 -99.99 -9.99
2019/05/25 23:36 EDT    1.43   2.24   15  183   17 -99.9  70.7 -999.9 -9.9 -9.999 -99.9 -99.99 -9.99
2019/05/25 23:42 EDT    1.48   2.31   16  181   18 -99.9  70.7 -999.9 -9.9 -9.999 -99.9 -99.99 -9.99
2019/05/25 23:48 EDT    1.54   2.37   15  178   17 -99.9  70.7 -999.9 -9.9 -9.999 -99.9 -99.99 -9.99
2019/05/25 23:54 EDT    1.59   2.42   15  181   17 -99.9  70.7 -999.9 -9.9 -9.999 -99.9 -99.99 -9.99
2019/05/26 00:00 EDT    1.64   2.47   15  178   16 -99.9  70.7 -999.9 -9.9 -9.999 -99.9 -99.99 -9.99
2019/05/26 00:06 EDT    1.69   2.53   14  178   16 -99.9  70.7 -999.9 -9.9 -9.999 -99.9 -99.99 -9.99
2019/05/26 00:12 EDT    1.74   2.58   13  185   15 -99.9  70.7 -999.9 -9.9 -9.999 -99.9 -99.99 -9.99
2019/05/26 00:18 EDT    1.79   2.63   15  191   17 -99.9  70.7 -999.9 -9.9 -9.999 -99.9 -99.99 -9.99
2019/05/26 00:24 EDT    1.84   2.66   15  188   17 -99.9  70.7 -999.9 -9.9 -9.999 -99.9 -99.99 -9.99
2019/05/26 00:30 EDT    1.89   2.68   15  190   17 -99.9  70.7 -999.9 -9.9 -9.999 -99.9 -99.99 -9.99
2019/05/26 00:36 EDT    1.93   2.70   13  191   16 -99.9  70.7 -999.9 -9.9 -9.999 -99.9 -99.99 -9.99
2019/05/26 00:42 EDT    1.98   2.78   14  193   16 -99.9  70.7 -999.9 -9.9 -9.999 -99.9 -99.99 -9.99
2019/05/26 00:48 EDT    2.02   2.83   14  191   16 -99.9  70.7 -999.9 -9.9 -9.999 -99.9 -99.99 -9.99
2019/05/26 00:54 EDT    2.06   2.89   13  192   16 -99.9  70.7 -999.9 -9.9 -9.999 -99.9 -99.99 -9.99
2019/05/26 01:00 EDT    2.10   2.92   14  191   16 -99.9  70.7 -999.9 -9.9 -9.999 -99.9 -99.99 -9.99
2019/05/26 01:06 EDT    2.14   2.93   14  192   16 -99.9  70.7 -999.9 -9.9 -9.999 -99.9 -99.99 -9.99
2019/05/26 01:12 EDT    2.18   2.97   14  194   16 -99.9  70.7 -999.9 -9.9 -9.999 -99.9 -99.99 -9.99
2019/05/26 01:18 EDT    2.21   3.04   14  192   16 -99.9  70.7 -999.9 -9.9 -9.999 -99.9 -99.99 -9.99
2019/05/26 01:24 EDT    2.24   3.10   14  194   16 -99.9  70.7 -999.9 -9.9 -9.999 -99.9 -99.99 -9.99
2019/05/26 01:30 EDT    2.27   3.10   13  193   16 -99.9  70.7 -999.9 -9.9 -9.999 -99.9 -99.99 -9.99
2019/05/26 01:36 EDT    2.30   3.16   12  194   15 -99.9  70.7 -999.9 -9.9 -9.999 -99.9 -99.99 -9.99
2019/05/26 01:42 EDT    2.33   3.15   12  195   14 -99.9  70.5 -999.9 -9.9 -9.999 -99.9 -99.99 -9.99
2019/05/26 01:48 EDT    2.35   3.18   13  202   14 -99.9  70.5 -999.9 -9.9 -9.999 -99.9 -99.99 -9.99
2019/05/26 01:54 EDT    2.37   3.19   11  200   15 -99.9  70.7 -999.9 -9.9 -9.999 -99.9 -99.99 -9.99
2019/05/26 02:00 EDT    2.39   3.21   11  201   14 -99.9  70.5 -999.9 -9.9 -9.999 -99.9 -99.99 -9.99
2019/05/26 02:06 EDT    2.40   3.24   12  201   14 -99.9  70.5 -999.9 -9.9 -9.999 -99.9 -99.99 -9.99
2019/05/26 02:12 EDT    2.42   3.21   11  202   14 -99.9  70.5 -999.9 -9.9 -9.999 -99.9 -99.99 -9.99
2019/05/26 02:18 EDT    2.43   3.20   11  204   13 -99.9  70.5 -999.9 -9.9 -9.999 -99.9 -99.99 -9.99
2019/05/26 02:24 EDT    2.44   3.23   11  206   14 -99.9  70.5 -999.9 -9.9 -9.999 -99.9 -99.99 -9.99
2019/05/26 02:30 EDT    2.44   3.25   10  207   13 -99.9  70.3 -999.9 -9.9 -9.999 -99.9 -99.99 -9.99
2019/05/26 02:36 EDT    2.45   3.27   10  204   12 -99.9  70.3 -999.9 -9.9 -9.999 -99.9 -99.99 -9.99
2019/05/26 02:42 EDT    2.45   3.27   10  208   12 -99.9  70.2 -999.9 -9.9 -9.999 -99.9 -99.99 -9.99
2019/05/26 02:48 EDT    2.45   3.26   11  208   13 -99.9  70.2 -999.9 -9.9 -9.999 -99.9 -99.99 -9.99
2019/05/26 02:54 EDT    2.45   3.23   10  205   12 -99.9  70.3 -999.9 -9.9 -9.999 -99.9 -99.99 -9.99
2019/05/26 03:00 EDT    2.45   3.25   10  205   12 -99.9  70.3 -999.9 -9.9 -9.999 -99.9 -99.99 -9.99
2019/05/26 03:06 EDT    2.44   3.27   10  207   12 -99.9  70.2 -999.9 -9.9 -9.999 -99.9 -99.99 -9.99
2019/05/26 03:12 EDT    2.43   3.23    9  205   11 -99.9  70.2 -999.9 -9.9 -9.999 -99.9 -99.99 -9.99
2019/05/26 03:18 EDT    2.42   3.18    9  198   12 -99.9  70.2 -999.9 -9.9 -9.999 -99.9 -99.99 -9.99
2019/05/26 03:24 EDT    2.41   3.14    8  197   10 -99.9  70.2 -999.9 -9.9 -9.999 -99.9 -99.99 -9.99
2019/05/26 03:30 EDT    2.40   3.18    9  206   10 -99.9  70.3 -999.9 -9.9 -9.999 -99.9 -99.99 -9.99
2019/05/26 03:36 EDT    2.38   3.17    8  206   10 -99.9  70.5 -999.9 -9.9 -9.999 -99.9 -99.99 -9.99
2019/05/26 03:42 EDT    2.36   3.18    6  218    8 -99.9  70.5 -999.9 -9.9 -9.999 -99.9 -99.99 -9.99
2019/05/26 03:48 EDT    2.34   3.13    9  220   11 -99.9  70.5 -999.9 -9.9 -9.999 -99.9 -99.99 -9.99
2019/05/26 03:54 EDT    2.32   3.09   10  220   11 -99.9  70.3 -999.9 -9.9 -9.999 -99.9 -99.99 -9.99
2019/05/26 04:00 EDT    2.30   3.05   12  216   13 -99.9  70.5 -999.9 -9.9 -9.999 -99.9 -99.99 -9.99
2019/05/26 04:06 EDT    2.27   3.06   11  209   13 -99.9  70.5 -999.9 -9.9 -9.999 -99.9 -99.99 -9.99
2019/05/26 04:12 EDT    2.25   3.04   11  217   12 -99.9  70.5 -999.9 -9.9 -9.999 -99.9 -99.99 -9.99
2019/05/26 04:18 EDT    2.22   3.00   10  212   12 -99.9  70.7 -999.9 -9.9 -9.999 -99.9 -99.99 -9.99
2019/05/26 04:24 EDT    2.19   2.95   13  207   15 -99.9  70.7 -999.9 -9.9 -9.999 -99.9 -99.99 -9.99
2019/05/26 04:30 EDT    2.15   2.87   12  201   16 -99.9  70.7 -999.9 -9.9 -9.999 -99.9 -99.99 -9.99
2019/05/26 04:36 EDT    2.12   2.85   10  190   13 -99.9  70.7 -999.9 -9.9 -9.999 -99.9 -99.99 -9.99
2019/05/26 04:42 EDT    2.08   2.86   10  192   11 -99.9  70.7 -999.9 -9.9 -9.999 -99.9 -99.99 -9.99
2019/05/26 04:48 EDT    2.04   2.85    9  195   11 -99.9  70.7 -999.9 -9.9 -9.999 -99.9 -99.99 -9.99
2019/05/26 04:54 EDT    2.00   2.83   10  195   11 -99.9  70.5 -999.9 -9.9 -9.999 -99.9 -99.99 -9.99
2019/05/26 05:00 EDT    1.96   2.81    7  204   11 -99.9  70.3 -999.9 -9.9 -9.999 -99.9 -99.99 -9.99
2019/05/26 05:06 EDT    1.92   2.77   10  214   14 -99.9  70.3 -999.9 -9.9 -9.999 -99.9 -99.99 -9.99
2019/05/26 05:12 EDT    1.88   2.73    8  205   11 -99.9  70.3 -999.9 -9.9 -9.999 -99.9 -99.99 -9.99
2019/05/26 05:18 EDT    1.83   2.70    8  208   10 -99.9  70.3 -999.9 -9.9 -9.999 -99.9 -99.99 -9.99
2019/05/26 05:24 EDT    1.78   2.66    8  206   10 -99.9  70.3 -999.9 -9.9 -9.999 -99.9 -99.99 -9.99
2019/05/26 05:30 EDT    1.74   2.58    9  199   11 -99.9  70.3 -999.9 -9.9 -9.999 -99.9 -99.99 -9.99
2019/05/26 05:36 EDT    1.69   2.46    7  206   11 -99.9  70.3 -999.9 -9.9 -9.999 -99.9 -99.99 -9.99
2019/05/26 05:42 EDT    1.64   2.42    9  205   11 -99.9  70.2 -999.9 -9.9 -9.999 -99.9 -99.99 -9.99
2019/05/26 05:48 EDT    1.59   2.37    8  199   10 -99.9  70.2 -999.9 -9.9 -9.999 -99.9 -99.99 -9.99
2019/05/26 05:54 EDT    1.54   2.33    7  199   10 -99.9  70.2 -999.9 -9.9 -9.999 -99.9 -99.99 -9.99
2019/05/26 06:00 EDT    1.49   2.31    7  190    9 -99.9  70.2 -999.9 -9.9 -9.999 -99.9 -99.99 -9.99
2019/05/26 06:06 EDT    1.44   2.24    8  193   10 -99.9  70.2 -999.9 -9.9 -9.999 -99.9 -99.99 -9.99
2019/05/26 06:12 EDT    1.39   2.19    7  196    9 -99.9  70.2 -999.9 -9.9 -9.999 -99.9 -99.99 -9.99
2019/05/26 06:18 EDT    1.33   2.14    7  194    9 -99.9  70.3 -999.9 -9.9 -9.999 -99.9 -99.99 -9.99
2019/05/26 06:24 EDT    1.28   2.13    9  204   11 -99.9  70.3 -999.9 -9.9 -9.999 -99.9 -99.99 -9.99
2019/05/26 06:30 EDT    1.23   2.07    7  202   10 -99.9  70.3 -999.9 -9.9 -9.999 -99.9 -99.99 -9.99
2019/05/26 06:36 EDT    1.18   2.06    7  208    8 -99.9  70.3 -999.9 -9.9 -9.999 -99.9 -99.99 -9.99
2019/05/26 06:42 EDT    1.14   1.96    5  207    7 -99.9  70.3 -999.9 -9.9 -9.999 -99.9 -99.99 -9.99
2019/05/26 06:48 EDT    1.09   1.92    5  212    7 -99.9  70.3 -999.9 -9.9 -9.999 -99.9 -99.99 -9.99
2019/05/26 06:54 EDT    1.04   1.88    4  219    6 -99.9  70.3 -999.9 -9.9 -9.999 -99.9 -99.99 -9.99
2019/05/26 07:00 EDT    1.00   1.82    4  226    6 -99.9  70.3 -999.9 -9.9 -9.999 -99.9 -99.99 -9.99
2019/05/26 07:06 EDT    0.95   1.77    5  238    7 -99.9  70.3 -999.9 -9.9 -9.999 -99.9 -99.99 -9.99
2019/05/26 07:12 EDT    0.91   1.74    5  235    7 -99.9  70.2 -999.9 -9.9 -9.999 -99.9 -99.99 -9.99
2019/05/26 07:18 EDT    0.87   1.65    5  241    7 -99.9  70.2 -999.9 -9.9 -9.999 -99.9 -99.99 -9.99
2019/05/26 07:24 EDT    0.83   1.63    4  234    6 -99.9  70.3 -999.9 -9.9 -9.999 -99.9 -99.99 -9.99
2019/05/26 07:30 EDT    0.79   1.55    3  216    4 -99.9  70.3 -999.9 -9.9 -9.999 -99.9 -99.99 -9.99
2019/05/26 07:36 EDT    0.76   1.53    3  250    4 -99.9  70.3 -999.9 -9.9 -9.999 -99.9 -99.99 -9.99
2019/05/26 07:42 EDT    0.73   1.50    2  233    4 -99.9  70.5 -999.9 -9.9 -9.999 -99.9 -99.99 -9.99
2019/05/26 07:48 EDT    0.69   1.49    4  241    6 -99.9  70.5 -999.9 -9.9 -9.999 -99.9 -99.99 -9.99
2019/05/26 07:54 EDT    0.67   1.42    4  244    6 -99.9  70.5 -999.9 -9.9 -9.999 -99.9 -99.99 -9.99
2019/05/26 08:00 EDT    0.64   1.36    4  247    6 -99.9  70.3 -999.9 -9.9 -9.999 -99.9 -99.99 -9.99
2019/05/26 08:06 EDT    0.61   1.32    4  251    6 -99.9  70.3 -999.9 -9.9 -9.999 -99.9 -99.99 -9.99
2019/05/26 08:12 EDT    0.59   1.33    6  242    7 -99.9  70.3 -999.9 -9.9 -9.999 -99.9 -99.99 -9.99
2019/05/26 08:18 EDT    0.57   1.32    5  245    7 -99.9  70.3 -999.9 -9.9 -9.999 -99.9 -99.99 -9.99
2019/05/26 08:24 EDT    0.55   1.30    5  250    6 -99.9  70.3 -999.9 -9.9 -9.999 -99.9 -99.99 -9.99
2019/05/26 08:30 EDT    0.53   1.24    6  255    8 -99.9  70.3 -999.9 -9.9 -9.999 -99.9 -99.99 -9.99
2019/05/26 08:36 EDT    0.52   1.22    6  261    7 -99.9  70.3 -999.9 -9.9 -9.999 -99.9 -99.99 -9.99
2019/05/26 08:42 EDT    0.51   1.19    5  263    8 -99.9  70.3 -999.9 -9.9 -9.999 -99.9 -99.99 -9.99
2019/05/26 08:48 EDT    0.50   1.18    5  263    7 -99.9  70.3 -999.9 -9.9 -9.999 -99.9 -99.99 -9.99
2019/05/26 08:54 EDT    0.49   1.16    5  271    7 -99.9  70.5 -999.9 -9.9 -9.999 -99.9 -99.99 -9.99
2019/05/26 09:00 EDT    0.48   1.14    6  268    8 -99.9  70.5 -999.9 -9.9 -9.999 -99.9 -99.99 -9.99
2019/05/26 09:06 EDT    0.48   1.10    5  273    6 -99.9  70.5 -999.9 -9.9 -9.999 -99.9 -99.99 -9.99
2019/05/26 09:12 EDT    0.47   1.09    6  270    7 -99.9  70.7 -999.9 -9.9 -9.999 -99.9 -99.99 -9.99
2019/05/26 09:18 EDT    0.47   1.08    6  276    7 -99.9  70.7 -999.9 -9.9 -9.999 -99.9 -99.99 -9.99
2019/05/26 09:24 EDT    0.47   1.08    5  275    6 -99.9  70.9 -999.9 -9.9 -9.999 -99.9 -99.99 -9.99
2019/05/26 09:30 EDT    0.48   1.09    6  275    8 -99.9  70.9 -999.9 -9.9 -9.999 -99.9 -99.99 -9.99
2019/05/26 09:36 EDT    0.48   1.08    7  279    8 -99.9  70.9 -999.9 -9.9 -9.999 -99.9 -99.99 -9.99
2019/05/26 09:42 EDT    0.49   1.10    6  284    7 -99.9  71.1 -999.9 -9.9 -9.999 -99.9 -99.99 -9.99
2019/05/26 09:48 EDT    0.50   1.12    4  290    6 -99.9  71.1 -999.9 -9.9 -9.999 -99.9 -99.99 -9.99
2019/05/26 09:54 EDT    0.51   1.13    3  296    4 -99.9  71.1 -999.9 -9.9 -9.999 -99.9 -99.99 -9.99
2019/05/26 10:00 EDT    0.52   1.17    2  291    4 -99.9  71.1 -999.9 -9.9 -9.999 -99.9 -99.99 -9.99
2019/05/26 10:06 EDT    0.54   1.17    3  282    4 -99.9  71.1 -999.9 -9.9 -9.999 -99.9 -99.99 -9.99
2019/05/26 10:12 EDT    0.56   1.18    2  281    4 -99.9  71.2 -999.9 -9.9 -9.999 -99.9 -99.99 -9.99
2019/05/26 10:18 EDT    0.58   1.20    2  264    3 -99.9  71.2 -999.9 -9.9 -9.999 -99.9 -99.99 -9.99
2019/05/26 10:24 EDT    0.60   1.21    2  276    3 -99.9  71.2 -999.9 -9.9 -9.999 -99.9 -99.99 -9.99
2019/05/26 10:30 EDT    0.62   1.22    1  242    2 -99.9  71.2 -999.9 -9.9 -9.999 -99.9 -99.99 -9.99
2019/05/26 10:36 EDT    0.65   1.25    0  220    1 -99.9  71.4 -999.9 -9.9 -9.999 -99.9 -99.99 -9.99
2019/05/26 10:42 EDT    0.68   1.27    1  179    2 -99.9  71.4 -999.9 -9.9 -9.999 -99.9 -99.99 -9.99
2019/05/26 10:48 EDT    0.71   1.30    3  177    4 -99.9  71.8 -999.9 -9.9 -9.999 -99.9 -99.99 -9.99
2019/05/26 10:54 EDT    0.74   1.35    1  206    4 -99.9  72.0 -999.9 -9.9 -9.999 -99.9 -99.99 -9.99
2019/05/26 11:00 EDT    0.77   1.38    2  236    4 -99.9  72.0 -999.9 -9.9 -9.999 -99.9 -99.99 -9.99
2019/05/26 11:06 EDT    0.81   1.37    3  299    4 -99.9  72.1 -999.9 -9.9 -9.999 -99.9 -99.99 -9.99
2019/05/26 11:12 EDT    0.85   1.40    3  295    3 -99.9  72.1 -999.9 -9.9 -9.999 -99.9 -99.99 -9.99
2019/05/26 11:18 EDT    0.88   1.41    3  309    3 -99.9  72.0 -999.9 -9.9 -9.999 -99.9 -99.99 -9.99
2019/05/26 11:24 EDT    0.93   1.49    3  320    4 -99.9  72.0 -999.9 -9.9 -9.999 -99.9 -99.99 -9.99
2019/05/26 11:30 EDT    0.97   1.51    3  335    3 -99.9  72.0 -999.9 -9.9 -9.999 -99.9 -99.99 -9.99
2019/05/26 11:36 EDT    1.01   1.55    2  331    3 -99.9  72.0 -999.9 -9.9 -9.999 -99.9 -99.99 -9.99
2019/05/26 11:42 EDT    1.06   1.60    2  339    3 -99.9  72.0 -999.9 -9.9 -9.999 -99.9 -99.99 -9.99
2019/05/26 11:48 EDT    1.10   1.69    3  343    3 -99.9  72.0 -999.9 -9.9 -9.999 -99.9 -99.99 -9.99
2019/05/26 11:54 EDT    1.15   1.70    3  333    4 -99.9  72.0 -999.9 -9.9 -9.999 -99.9 -99.99 -9.99
2019/05/26 12:00 EDT    1.20   1.80    3  328    3 -99.9  71.8 -999.9 -9.9 -9.999 -99.9 -99.99 -9.99
2019/05/26 12:06 EDT    1.25   1.82    3  314    3 -99.9  71.8 -999.9 -9.9 -9.999 -99.9 -99.99 -9.99
2019/05/26 12:12 EDT    1.29   1.82    3  309    3 -99.9  71.6 -999.9 -9.9 -9.999 -99.9 -99.99 -9.99
2019/05/26 12:18 EDT    1.34   1.82    3  314    3 -99.9  71.4 -999.9 -9.9 -9.999 -99.9 -99.99 -9.99
2019/05/26 12:24 EDT    1.39   1.84    4  306    4 -99.9  71.2 -999.9 -9.9 -9.999 -99.9 -99.99 -9.99
2019/05/26 12:30 EDT    1.44   1.92    3  312    4 -99.9  71.2 -999.9 -9.9 -9.999 -99.9 -99.99 -9.99
2019/05/26 12:36 EDT    1.49   1.99    3  317    4 -99.9  71.4 -999.9 -9.9 -9.999 -99.9 -99.99 -9.99
2019/05/26 12:42 EDT    1.54   2.05    3  313    4 -99.9  71.2 -999.9 -9.9 -9.999 -99.9 -99.99 -9.99
2019/05/26 12:48 EDT    1.59   2.05    2  311    3 -99.9  71.2 -999.9 -9.9 -9.999 -99.9 -99.99 -9.99
2019/05/26 12:54 EDT    1.63   2.08    3  293    3 -99.9  71.1 -999.9 -9.9 -9.999 -99.9 -99.99 -9.99
2019/05/26 13:00 EDT    1.68   2.17    3  285    3 -99.9  71.2 -999.9 -9.9 -9.999 -99.9 -99.99 -9.99
2019/05/26 13:06 EDT    1.72   2.18    3  284    4 -99.9  71.2 -999.9 -9.9 -9.999 -99.9 -99.99 -9.99
2019/05/26 13:12 EDT    1.77   2.25    3  267    4 -99.9  71.4 -999.9 -9.9 -9.999 -99.9 -99.99 -9.99
2019/05/26 13:18 EDT    1.81   2.29    3  256    4 -99.9  71.6 -999.9 -9.9 -9.999 -99.9 -99.99 -9.99
2019/05/26 13:24 EDT    1.85   2.30    3  260    3 -99.9  71.6 -999.9 -9.9 -9.999 -99.9 -99.99 -9.99
2019/05/26 13:30 EDT    1.89   2.29    3  272    3 -99.9  71.6 -999.9 -9.9 -9.999 -99.9 -99.99 -9.99
2019/05/26 13:36 EDT    1.93   2.41    2  277    3 -99.9  71.4 -999.9 -9.9 -9.999 -99.9 -99.99 -9.99
2019/05/26 13:42 EDT    1.96   2.45    3  266    4 -99.9  71.1 -999.9 -9.9 -9.999 -99.9 -99.99 -9.99
2019/05/26 13:48 EDT    2.00   2.52    3  257    4 -99.9  71.1 -999.9 -9.9 -9.999 -99.9 -99.99 -9.99
2019/05/26 13:54 EDT    2.03   2.52    4  262    4 -99.9  71.1 -999.9 -9.9 -9.999 -99.9 -99.99 -9.99
2019/05/26 14:00 EDT    2.06   2.54    4  265    4 -99.9  71.2 -999.9 -9.9 -9.999 -99.9 -99.99 -9.99
2019/05/26 14:06 EDT    2.08   2.57    3  273    4 -99.9  71.2 -999.9 -9.9 -9.999 -99.9 -99.99 -9.99
2019/05/26 14:12 EDT    2.11   2.60    2  244    3 -99.9  71.2 -999.9 -9.9 -9.999 -99.9 -99.99 -9.99
2019/05/26 14:18 EDT    2.13   2.65    3  209    3 -99.9  71.2 -999.9 -9.9 -9.999 -99.9 -99.99 -9.99
2019/05/26 14:24 EDT    2.16   2.70    2  221    3 -99.9  71.4 -999.9 -9.9 -9.999 -99.9 -99.99 -9.99
2019/05/26 14:30 EDT    2.17   2.72    2  203    3 -99.9  72.0 -999.9 -9.9 -9.999 -99.9 -99.99 -9.99
2019/05/26 14:36 EDT    2.19   2.75    2  185    3 -99.9  73.0 -999.9 -9.9 -9.999 -99.9 -99.99 -9.99
2019/05/26 14:42 EDT    2.21   2.75    4  205    5 -99.9  73.6 -999.9 -9.9 -9.999 -99.9 -99.99 -9.99
2019/05/26 14:48 EDT    2.22   2.80    4  215    5 -99.9  73.6 -999.9 -9.9 -9.999 -99.9 -99.99 -9.99
2019/05/26 14:54 EDT    2.23   2.82    3  215    4 -99.9  73.2 -999.9 -9.9 -9.999 -99.9 -99.99 -9.99
2019/05/26 15:00 EDT    2.24   2.80    3  213    3 -99.9  72.9 -999.9 -9.9 -9.999 -99.9 -99.99 -9.99
2019/05/26 15:06 EDT    2.25   2.84    2  203    3 -99.9  72.5 -999.9 -9.9 -9.999 -99.9 -99.99 -9.99
2019/05/26 15:12 EDT    2.25   2.85    2  184    2 -99.9  72.3 -999.9 -9.9 -9.999 -99.9 -99.99 -9.99
2019/05/26 15:18 EDT    2.26   2.83    2  189    2 -99.9  72.5 -999.9 -9.9 -9.999 -99.9 -99.99 -9.99
2019/05/26 15:24 EDT    2.26   2.84    3  185    3 -99.9  72.5 -999.9 -9.9 -9.999 -99.9 -99.99 -9.99
2019/05/26 15:30 EDT    2.26   2.82    4  185    4 -99.9  72.7 -999.9 -9.9 -9.999 -99.9 -99.99 -9.99
2019/05/26 15:36 EDT    2.26   2.84    3  178    5 -99.9  73.2 -999.9 -9.9 -9.999 -99.9 -99.99 -9.99
2019/05/26 15:42 EDT    2.25   2.84    3  172    3 -99.9  73.2 -999.9 -9.9 -9.999 -99.9 -99.99 -9.99
2019/05/26 15:48 EDT    2.25   2.81    4  170    4 -99.9  73.0 -999.9 -9.9 -9.999 -99.9 -99.99 -9.99
2019/05/26 15:54 EDT    2.24   2.81    3  154    3 -99.9  74.1 -999.9 -9.9 -9.999 -99.9 -99.99 -9.99
2019/05/26 16:00 EDT    2.23   2.79    2  153    3 -99.9  74.7 -999.9 -9.9 -9.999 -99.9 -99.99 -9.99
2019/05/26 16:06 EDT    2.22   2.79    2  160    3 -99.9  75.0 -999.9 -9.9 -9.999 -99.9 -99.99 -9.99
2019/05/26 16:12 EDT    2.21   2.76    1  142    2 -99.9  74.8 -999.9 -9.9 -9.999 -99.9 -99.99 -9.99
2019/05/26 16:18 EDT    2.19   2.74    3  187    4 -99.9  74.7 -999.9 -9.9 -9.999 -99.9 -99.99 -9.99
2019/05/26 16:24 EDT    2.18   2.74    4  182    5 -99.9  74.5 -999.9 -9.9 -9.999 -99.9 -99.99 -9.99
2019/05/26 16:30 EDT    2.16   2.71    3  172    4 -99.9  75.0 -999.9 -9.9 -9.999 -99.9 -99.99 -9.99
2019/05/26 16:36 EDT    2.14   2.72    2  160    3 -99.9  75.9 -999.9 -9.9 -9.999 -99.9 -99.99 -9.99
2019/05/26 16:42 EDT    2.12   2.69    2  153    2 -99.9  76.8 -999.9 -9.9 -9.999 -99.9 -99.99 -9.99
2019/05/26 16:48 EDT    2.09   2.62    2  154    2 -99.9  77.0 -999.9 -9.9 -9.999 -99.9 -99.99 -9.99
2019/05/26 16:54 EDT    2.07   2.62    2  173    2 -99.9  77.0 -999.9 -9.9 -9.999 -99.9 -99.99 -9.99
2019/05/26 17:00 EDT    2.04   2.56    2  175    2 -99.9  77.0 -999.9 -9.9 -9.999 -99.9 -99.99 -9.99
2019/05/26 17:06 EDT    2.01   2.55    3  176    3 -99.9  77.2 -999.9 -9.9 -9.999 -99.9 -99.99 -9.99
2019/05/26 17:12 EDT    1.98   2.55    2  187    3 -99.9  77.0 -999.9 -9.9 -9.999 -99.9 -99.99 -9.99
2019/05/26 17:18 EDT    1.95   2.50    2  183    3 -99.9  76.6 -999.9 -9.9 -9.999 -99.9 -99.99 -9.99
2019/05/26 17:24 EDT    1.91   2.46    2  184    2 -99.9  76.1 -999.9 -9.9 -9.999 -99.9 -99.99 -9.99
2019/05/26 17:30 EDT    1.88   2.40    2  174    2 -99.9  75.7 -999.9 -9.9 -9.999 -99.9 -99.99 -9.99
2019/05/26 17:36 EDT    1.84   2.36    1  161    1 -99.9  75.6 -999.9 -9.9 -9.999 -99.9 -99.99 -9.99
2019/05/26 17:42 EDT    1.80   2.33    1  165    2 -99.9  75.0 -999.9 -9.9 -9.999 -99.9 -99.99 -9.99
2019/05/26 17:48 EDT    1.76   2.28    2  123    2 -99.9  74.8 -999.9 -9.9 -9.999 -99.9 -99.99 -9.99
2019/05/26 17:54 EDT    1.72   2.21    8  176   10 -99.9  74.7 -999.9 -9.9 -9.999 -99.9 -99.99 -9.99
2019/05/26 18:00 EDT    1.68   2.14   12  178   14 -99.9  74.3 -999.9 -9.9 -9.999 -99.9 -99.99 -9.99
2019/05/26 18:06 EDT    1.63   2.12   13  177   14 -99.9  74.3 -999.9 -9.9 -9.999 -99.9 -99.99 -9.99
2019/05/26 18:12 EDT    1.59   2.08   11  172   13 -99.9  74.1 -999.9 -9.9 -9.999 -99.9 -99.99 -9.99
2019/05/26 18:18 EDT    1.54   2.06    9  167   11 -99.9  73.9 -999.9 -9.9 -9.999 -99.9 -99.99 -9.99
2019/05/26 18:24 EDT    1.50   2.00    9  167   10 -99.9  73.9 -999.9 -9.9 -9.999 -99.9 -99.99 -9.99
2019/05/26 18:30 EDT    1.45   1.94    8  168    9 -99.9  73.9 -999.9 -9.9 -9.999 -99.9 -99.99 -9.99
2019/05/26 18:36 EDT    1.41   1.89    9  169   11 -99.9  73.9 -999.9 -9.9 -9.999 -99.9 -99.99 -9.99
2019/05/26 18:42 EDT    1.36   1.84   11  168   12 -99.9  73.9 -999.9 -9.9 -9.999 -99.9 -99.99 -9.99
2019/05/26 18:48 EDT    1.32   1.79    9  168   10 -99.9  74.1 -999.9 -9.9 -9.999 -99.9 -99.99 -9.99
2019/05/26 18:54 EDT    1.27   1.73   11  170   13 -99.9  74.3 -999.9 -9.9 -9.999 -99.9 -99.99 -9.99
2019/05/26 19:00 EDT    1.23   1.69   13  176   16 -99.9  74.3 -999.9 -9.9 -9.999 -99.9 -99.99 -9.99
2019/05/26 19:06 EDT    1.19   1.63   12  174   15 -99.9  74.1 -999.9 -9.9 -9.999 -99.9 -99.99 -9.99
2019/05/26 19:12 EDT    1.14   1.61   10  173   12 -99.9  74.5 -999.9 -9.9 -9.999 -99.9 -99.99 -9.99
2019/05/26 19:18 EDT    1.10   1.58   10  171   11 -99.9  74.5 -999.9 -9.9 -9.999 -99.9 -99.99 -9.99
2019/05/26 19:24 EDT    1.06   1.54   10  166   11 -99.9  74.1 -999.9 -9.9 -9.999 -99.9 -99.99 -9.99
2019/05/26 19:30 EDT    1.02   1.48   10  170   11 -99.9  73.8 -999.9 -9.9 -9.999 -99.9 -99.99 -9.99
2019/05/26 19:36 EDT    0.98   1.43    9  165   11 -99.9  73.8 -999.9 -9.9 -9.999 -99.9 -99.99 -9.99
2019/05/26 19:42 EDT    0.95   1.42    8  159   11 -99.9  73.8 -999.9 -9.9 -9.999 -99.9 -99.99 -9.99
2019/05/26 19:48 EDT    0.91   1.38    8  153   10 -99.9  73.9 -999.9 -9.9 -9.999 -99.9 -99.99 -9.99
2019/05/26 19:54 EDT    0.88   1.34    8  156    9 -99.9  74.1 -999.9 -9.9 -9.999 -99.9 -99.99 -9.99
2019/05/26 20:00 EDT    0.85   1.32    7  149    9 -99.9  74.1 -999.9 -9.9 -9.999 -99.9 -99.99 -9.99
2019/05/26 20:06 EDT    0.82   1.27    8  154   10 -99.9  73.9 -999.9 -9.9 -9.999 -99.9 -99.99 -9.99
2019/05/26 20:12 EDT    0.79   1.23    6  148    9 -99.9  73.9 -999.9 -9.9 -9.999 -99.9 -99.99 -9.99
2019/05/26 20:18 EDT    0.76   1.18    6  145    7 -99.9  73.8 -999.9 -9.9 -9.999 -99.9 -99.99 -9.99
2019/05/26 20:24 EDT    0.74   1.16    7  142    9 -99.9  73.8 -999.9 -9.9 -9.999 -99.9 -99.99 -9.99
2019/05/26 20:30 EDT    0.71   1.12    7  147    8 -99.9  73.8 -999.9 -9.9 -9.999 -99.9 -99.99 -9.99
2019/05/26 20:36 EDT    0.69   1.11    7  148    8 -99.9  73.8 -999.9 -9.9 -9.999 -99.9 -99.99 -9.99
2019/05/26 20:42 EDT    0.68   1.11    8  152    9 -99.9  74.1 -999.9 -9.9 -9.999 -99.9 -99.99 -9.99
2019/05/26 20:48 EDT    0.66   1.10    8  152    9 -99.9  74.1 -999.9 -9.9 -9.999 -99.9 -99.99 -9.99
2019/05/26 20:54 EDT    0.65   1.09   10  164   12 -99.9  74.5 -999.9 -9.9 -9.999 -99.9 -99.99 -9.99
2019/05/26 21:00 EDT    0.63   1.08   11  165   12 -99.9  74.5 -999.9 -9.9 -9.999 -99.9 -99.99 -9.99
2019/05/26 21:06 EDT    0.62   1.07   11  171   13 -99.9  75.0 -999.9 -9.9 -9.999 -99.9 -99.99 -9.99
2019/05/26 21:12 EDT    0.61   1.06   12  173   14 -99.9  75.2 -999.9 -9.9 -9.999 -99.9 -99.99 -9.99
2019/05/26 21:18 EDT    0.61   1.06   13  169   15 -99.9  75.4 -999.9 -9.9 -9.999 -99.9 -99.99 -9.99
2019/05/26 21:24 EDT    0.60   1.06   12  168   13 -99.9  75.4 -999.9 -9.9 -9.999 -99.9 -99.99 -9.99
2019/05/26 21:30 EDT    0.60   1.06   12  168   15 -99.9  75.4 -999.9 -9.9 -9.999 -99.9 -99.99 -9.99
2019/05/26 21:36 EDT    0.60   1.06   12  167   14 -99.9  75.4 -999.9 -9.9 -9.999 -99.9 -99.99 -9.99
2019/05/26 21:42 EDT    0.60   1.07    9  168   12 -99.9  75.0 -999.9 -9.9 -9.999 -99.9 -99.99 -9.99
2019/05/26 21:48 EDT    0.60   1.08    9  170   10 -99.9  74.8 -999.9 -9.9 -9.999 -99.9 -99.99 -9.99
2019/05/26 21:54 EDT    0.61   1.07    9  165   10 -99.9  74.7 -999.9 -9.9 -9.999 -99.9 -99.99 -9.99
2019/05/26 22:00 EDT    0.62   1.10   10  167   10 -99.9  74.7 -999.9 -9.9 -9.999 -99.9 -99.99 -9.99
2019/05/26 22:06 EDT    0.62   1.11   10  170   11 -99.9  74.8 -999.9 -9.9 -9.999 -99.9 -99.99 -9.99
2019/05/26 22:12 EDT    0.64   1.11   10  171   11 -99.9  74.8 -999.9 -9.9 -9.999 -99.9 -99.99 -9.99
2019/05/26 22:18 EDT    0.65   1.12    9  170   10 -99.9  74.8 -999.9 -9.9 -9.999 -99.9 -99.99 -9.99
2019/05/26 22:24 EDT    0.66   1.12    9  171   10 -99.9  74.8 -999.9 -9.9 -9.999 -99.9 -99.99 -9.99
2019/05/26 22:30 EDT    0.68   1.14    9  168   11 -99.9  74.7 -999.9 -9.9 -9.999 -99.9 -99.99 -9.99
2019/05/26 22:36 EDT    0.70   1.14    9  168   10 -99.9  74.7 -999.9 -9.9 -9.999 -99.9 -99.99 -9.99
2019/05/26 22:42 EDT    0.72   1.15    8  170    9 -99.9  74.8 -999.9 -9.9 -9.999 -99.9 -99.99 -9.99
2019/05/26 22:48 EDT    0.74   1.15    8  174   10 -99.9  74.8 -999.9 -9.9 -9.999 -99.9 -99.99 -9.99
2019/05/26 22:54 EDT    0.77   1.18    7  176    8 -99.9  74.7 -999.9 -9.9 -9.999 -99.9 -99.99 -9.99
2019/05/26 23:00 EDT    0.79   1.21    7  185    8 -99.9  73.9 -999.9 -9.9 -9.999 -99.9 -99.99 -9.99
2019/05/26 23:06 EDT    0.82   1.25    7  184    8 -99.9  73.6 -999.9 -9.9 -9.999 -99.9 -99.99 -9.99
2019/05/26 23:12 EDT    0.85   1.27    9  193   10 -99.9  73.2 -999.9 -9.9 -9.999 -99.9 -99.99 -9.99
2019/05/26 23:18 EDT    0.89   1.29    8  189   10 -99.9  73.4 -999.9 -9.9 -9.999 -99.9 -99.99 -9.99
2019/05/26 23:24 EDT    0.92   1.30    7  175    8 -99.9  73.2 -999.9 -9.9 -9.999 -99.9 -99.99 -9.99
2019/05/26 23:30 EDT    0.96   1.32    6  170    7 -99.9  73.0 -999.9 -9.9 -9.999 -99.9 -99.99 -9.99
2019/05/26 23:36 EDT    0.99   1.37    6  168    7 -99.9  73.0 -999.9 -9.9 -9.999 -99.9 -99.99 -9.99
2019/05/26 23:42 EDT    1.03   1.39    7  162    9 -99.9  72.9 -999.9 -9.9 -9.999 -99.9 -99.99 -9.99
2019/05/26 23:48 EDT    1.07   1.41    7  160    8 -99.9  72.9 -999.9 -9.9 -9.999 -99.9 -99.99 -9.99
2019/05/26 23:54 EDT    1.12   1.44    6  161    8 -99.9  72.9 -999.9 -9.9 -9.999 -99.9 -99.99 -9.99
2019/05/27 00:00 EDT    1.16   1.52    6  160    7 -99.9  72.9 -999.9 -9.9 -9.999 -99.9 -99.99 -9.99
2019/05/27 00:06 EDT    1.21   1.60    6  162    6 -99.9  72.7 -999.9 -9.9 -9.999 -99.9 -99.99 -9.99
2019/05/27 00:12 EDT    1.25   1.69    6  166    6 -99.9  72.0 -999.9 -9.9 -9.999 -99.9 -99.99 -9.99
2019/05/27 00:18 EDT    1.30   1.72    5  163    6 -99.9  71.8 -999.9 -9.9 -9.999 -99.9 -99.99 -9.99
2019/05/27 00:24 EDT    1.35   1.74    5  165    6 -99.9  71.8 -999.9 -9.9 -9.999 -99.9 -99.99 -9.99
2019/05/27 00:30 EDT    1.40   1.77    5  162    6 -99.9  71.6 -999.9 -9.9 -9.999 -99.9 -99.99 -9.99
2019/05/27 00:36 EDT    1.44   1.83    5  159    6 -99.9  71.6 -999.9 -9.9 -9.999 -99.9 -99.99 -9.99
2019/05/27 00:42 EDT    1.49   1.88    5  160    7 -99.9  72.1 -999.9 -9.9 -9.999 -99.9 -99.99 -9.99
2019/05/27 00:48 EDT    1.54   1.91    5  158    6 -99.9  72.5 -999.9 -9.9 -9.999 -99.9 -99.99 -9.99
2019/05/27 00:54 EDT    1.59   1.94    6  167    6 -99.9  72.5 -999.9 -9.9 -9.999 -99.9 -99.99 -9.99
2019/05/27 01:00 EDT    1.64   1.98    6  178    7 -99.9  72.9 -999.9 -9.9 -9.999 -99.9 -99.99 -9.99
2019/05/27 01:06 EDT    1.69   2.03    6  181    7 -99.9  72.9 -999.9 -9.9 -9.999 -99.9 -99.99 -9.99
2019/05/27 01:12 EDT    1.74   2.14    5  183    6 -99.9  72.9 -999.9 -9.9 -9.999 -99.9 -99.99 -9.99
2019/05/27 01:18 EDT    1.78   2.18    5  181    7 -99.9  72.7 -999.9 -9.9 -9.999 -99.9 -99.99 -9.99
2019/05/27 01:24 EDT    1.83   2.24    6  184    7 -99.9  72.9 -999.9 -9.9 -9.999 -99.9 -99.99 -9.99
2019/05/27 01:30 EDT    1.87   2.28    6  180    7 -99.9  73.4 -999.9 -9.9 -9.999 -99.9 -99.99 -9.99
2019/05/27 01:36 EDT    1.91   2.30    5  178    7 -99.9  73.6 -999.9 -9.9 -9.999 -99.9 -99.99 -9.99
2019/05/27 01:42 EDT    1.96   2.35    5  180    6 -99.9  73.8 -999.9 -9.9 -9.999 -99.9 -99.99 -9.99
2019/05/27 01:48 EDT    2.00   2.39    5  181    6 -99.9  73.6 -999.9 -9.9 -9.999 -99.9 -99.99 -9.99
2019/05/27 01:54 EDT    2.03   2.44    5  181    6 -99.9  73.6 -999.9 -9.9 -9.999 -99.9 -99.99 -9.99
2019/05/27 02:00 EDT    2.07   2.50    5  182    6 -99.9  73.9 -999.9 -9.9 -9.999 -99.9 -99.99 -9.99
2019/05/27 02:06 EDT    2.10   2.54    5  179    6 -99.9  74.3 -999.9 -9.9 -9.999 -99.9 -99.99 -9.99
2019/05/27 02:12 EDT    2.14   2.57    5  186    6 -99.9  74.3 -999.9 -9.9 -9.999 -99.9 -99.99 -9.99
2019/05/27 02:18 EDT    2.17   2.64    4  282    7 -99.9  74.3 -999.9 -9.9 -9.999 -99.9 -99.99 -9.99
2019/05/27 02:24 EDT    2.20   2.77   21  316   26 -99.9  74.1 -999.9 -9.9 -9.999 -99.9 -99.99 -9.99
2019/05/27 02:30 EDT    2.22   2.86   24  346   31 -99.9  73.8 -999.9 -9.9 -9.999 -99.9 -99.99 -9.99
2019/05/27 02:36 EDT    2.25   2.91   19  352   26 -99.9  73.6 -999.9 -9.9 -9.999 -99.9 -99.99 -9.99
2019/05/27 02:42 EDT    2.27   2.96   19  348   26 -99.9  73.4 -999.9 -9.9 -9.999 -99.9 -99.99 -9.99
2019/05/27 02:48 EDT    2.29   2.95   17  358   24 -99.9  73.2 -999.9 -9.9 -9.999 -99.9 -99.99 -9.99
2019/05/27 02:54 EDT    2.30   2.91   14   10   18 -99.9  72.9 -999.9 -9.9 -9.999 -99.9 -99.99 -9.99
2019/05/27 03:00 EDT    2.32   2.93   14   15   18 -99.9  72.5 -999.9 -9.9 -9.999 -99.9 -99.99 -9.99
2019/05/27 03:06 EDT    2.33   2.92   11   21   17 -99.9  72.1 -999.9 -9.9 -9.999 -99.9 -99.99 -9.99
2019/05/27 03:12 EDT    2.34   2.95   10   39   15 -99.9  72.0 -999.9 -9.9 -9.999 -99.9 -99.99 -9.99
2019/05/27 03:18 EDT    2.35   2.98    8   41   13 -99.9  71.8 -999.9 -9.9 -9.999 -99.9 -99.99 -9.99
2019/05/27 03:24 EDT    2.36   2.97    8   39   13 -99.9  71.6 -999.9 -9.9 -9.999 -99.9 -99.99 -9.99
2019/05/27 03:30 EDT    2.36   3.05    8   42   10 -99.9  71.6 -999.9 -9.9 -9.999 -99.9 -99.99 -9.99
2019/05/27 03:36 EDT    2.37   3.09    6   45    8 -99.9  71.6 -999.9 -9.9 -9.999 -99.9 -99.99 -9.99
2019/05/27 03:42 EDT    2.37   3.14    7   40    8 -99.9  71.8 -999.9 -9.9 -9.999 -99.9 -99.99 -9.99
2019/05/27 03:48 EDT    2.37   3.17    7   28   11 -99.9  71.8 -999.9 -9.9 -9.999 -99.9 -99.99 -9.99
2019/05/27 03:54 EDT    2.36   3.15    5   26    9 -99.9  72.0 -999.9 -9.9 -9.999 -99.9 -99.99 -9.99
2019/05/27 04:00 EDT    2.36   3.14    7   32    9 -99.9  72.3 -999.9 -9.9 -9.999 -99.9 -99.99 -9.99
2019/05/27 04:06 EDT    2.35   3.12    7   35    9 -99.9  72.7 -999.9 -9.9 -9.999 -99.9 -99.99 -9.99
2019/05/27 04:12 EDT    2.34   3.02    5   58   10 -99.9  72.5 -999.9 -9.9 -9.999 -99.9 -99.99 -9.99
2019/05/27 04:18 EDT    2.33   3.02    7   64   10 -99.9  72.5 -999.9 -9.9 -9.999 -99.9 -99.99 -9.99
2019/05/27 04:24 EDT    2.32   3.02    5   71    8 -99.9  72.3 -999.9 -9.9 -9.999 -99.9 -99.99 -9.99
2019/05/27 04:30 EDT    2.30   2.98    5   69    8 -99.9  72.5 -999.9 -9.9 -9.999 -99.9 -99.99 -9.99
2019/05/27 04:36 EDT    2.28   2.96    5   61    7 -99.9  72.5 -999.9 -9.9 -9.999 -99.9 -99.99 -9.99
2019/05/27 04:42 EDT    2.27   2.95    4   61    6 -99.9  72.5 -999.9 -9.9 -9.999 -99.9 -99.99 -9.99
2019/05/27 04:48 EDT    2.24   2.91    3   43    5 -99.9  72.3 -999.9 -9.9 -9.999 -99.9 -99.99 -9.99
2019/05/27 04:54 EDT    2.22   2.89    4   76    6 -99.9  72.1 -999.9 -9.9 -9.999 -99.9 -99.99 -9.99
2019/05/27 05:00 EDT    2.20   2.87    5   69    6 -99.9  72.0 -999.9 -9.9 -9.999 -99.9 -99.99 -9.99
2019/05/27 05:06 EDT    2.17   2.81    3   67    5 -99.9  72.0 -999.9 -9.9 -9.999 -99.9 -99.99 -9.99
2019/05/27 05:12 EDT    2.14   2.74    2   89    4 -99.9  72.0 -999.9 -9.9 -9.999 -99.9 -99.99 -9.99
2019/05/27 05:18 EDT    2.11   2.74    4   68    4 -99.9  71.8 -999.9 -9.9 -9.999 -99.9 -99.99 -9.99
2019/05/27 05:24 EDT    2.08   2.71    4   68    5 -99.9  71.8 -999.9 -9.9 -9.999 -99.9 -99.99 -9.99
2019/05/27 05:30 EDT    2.05   2.64    3  103    5 -99.9  71.8 -999.9 -9.9 -9.999 -99.9 -99.99 -9.99
2019/05/27 05:36 EDT    2.01   2.53    4  136    5 -99.9  72.0 -999.9 -9.9 -9.999 -99.9 -99.99 -9.99
2019/05/27 05:42 EDT    1.97   2.48    3  120    5 -99.9  72.0 -999.9 -9.9 -9.999 -99.9 -99.99 -9.99
2019/05/27 05:48 EDT    1.94   2.42    5  107    6 -99.9  72.1 -999.9 -9.9 -9.999 -99.9 -99.99 -9.99
2019/05/27 05:54 EDT    1.90   2.38    4  116    7 -99.9  72.1 -999.9 -9.9 -9.999 -99.9 -99.99 -9.99
2019/05/27 06:00 EDT    1.85   2.35    3  109    5 -99.9  72.1 -999.9 -9.9 -9.999 -99.9 -99.99 -9.99
2019/05/27 06:06 EDT    1.81   2.34    0  149    2 -99.9  72.1 -999.9 -9.9 -9.999 -99.9 -99.99 -9.99
2019/05/27 06:12 EDT    1.77   2.31    2  154    2 -99.9  72.0 -999.9 -9.9 -9.999 -99.9 -99.99 -9.99
2019/05/27 06:18 EDT    1.72   2.23    2  164    3 -99.9  72.0 -999.9 -9.9 -9.999 -99.9 -99.99 -9.99
2019/05/27 06:24 EDT    1.67   2.16    1  138    3 -99.9  71.8 -999.9 -9.9 -9.999 -99.9 -99.99 -9.99
2019/05/27 06:30 EDT    1.62   2.06    0    4    1 -99.9  71.8 -999.9 -9.9 -9.999 -99.9 -99.99 -9.99
2019/05/27 06:36 EDT    1.58   1.99    2  202    3 -99.9  71.8 -999.9 -9.9 -9.999 -99.9 -99.99 -9.99
2019/05/27 06:42 EDT    1.53   1.97    4  222    5 -99.9  71.8 -999.9 -9.9 -9.999 -99.9 -99.99 -9.99
2019/05/27 06:48 EDT    1.48   1.90    2  225    4 -99.9  71.8 -999.9 -9.9 -9.999 -99.9 -99.99 -9.99
2019/05/27 06:54 EDT    1.43   1.90    4  220    5 -99.9  71.8 -999.9 -9.9 -9.999 -99.9 -99.99 -9.99
2019/05/27 07:00 EDT    1.38   1.89    4  224    5 -99.9  71.8 -999.9 -9.9 -9.999 -99.9 -99.99 -9.99
2019/05/27 07:06 EDT    1.33   1.89    3  220    5 -99.9  71.8 -999.9 -9.9 -9.999 -99.9 -99.99 -9.99
2019/05/27 07:12 EDT    1.28   1.86    4  222    5 -99.9  71.8 -999.9 -9.9 -9.999 -99.9 -99.99 -9.99
2019/05/27 07:18 EDT    1.23   1.82    5  236    6 -99.9  72.0 -999.9 -9.9 -9.999 -99.9 -99.99 -9.99
2019/05/27 07:24 EDT    1.18   1.71    5  235    6 -99.9  71.8 -999.9 -9.9 -9.999 -99.9 -99.99 -9.99
2019/05/27 07:30 EDT    1.13   1.67    5  233    6 -99.9  71.8 -999.9 -9.9 -9.999 -99.9 -99.99 -9.99
2019/05/27 07:36 EDT    1.08   1.62    5  236    6 -99.9  71.8 -999.9 -9.9 -9.999 -99.9 -99.99 -9.99
2019/05/27 07:42 EDT    1.04   1.57    5  250    6 -99.9  71.8 -999.9 -9.9 -9.999 -99.9 -99.99 -9.99
2019/05/27 07:48 EDT    0.99   1.53    6  254    7 -99.9  71.6 -999.9 -9.9 -9.999 -99.9 -99.99 -9.99
2019/05/27 07:54 EDT    0.95 -99.99 -999 -999 -999 -99.9 -99.9 -999.9 -9.9 -9.999 -99.9 -99.99 -9.99
2019/05/27 08:00 EDT    0.91 -99.99 -999 -999 -999 -99.9 -99.9 -999.9 -9.9 -9.999 -99.9 -99.99 -9.99

Revised: 08/08/2018
NOAA / National Ocean Service
Web site owner: Center for Operational Oceanographic Products and Services